<?xml version="1.0" encoding="UTF-8" standalone="no" ?>
<gpx xmlns="http://www.topografix.com/GPX/1/1" xmlns:xsi="http://www.w3.org/2001/XMLSchema-instance" xsi:schemaLocation="http://www.topografix.com/GPX/1/1 http://www.topografix.com/GPX/1/1/gpx.xsd" version="1.1" creator="VisuGPX - https://www.visugpx.com">
  <metadata>
    <name>VTT - Venelles</name>
    <desc><![CDATA[Aucune difficulté]]></desc>
  </metadata>
  <trk>
    <name><![CDATA[VTT - Venelles]]></name>
    <trkseg>
      <trkpt lat="43.6006" lon="5.48723">
        <ele>364</ele>
        <time>2012-12-22T08:08:28.000Z</time>
      </trkpt>
      <trkpt lat="43.60081" lon="5.48764">
        <ele>364.20001220703</ele>
        <time>2012-12-22T08:11:07.000Z</time>
      </trkpt>
      <trkpt lat="43.60059" lon="5.48819">
        <ele>365.79998779297</ele>
        <time>2012-12-22T08:11:26.000Z</time>
      </trkpt>
      <trkpt lat="43.60033" lon="5.48872">
        <ele>366.79998779297</ele>
        <time>2012-12-22T08:11:45.000Z</time>
      </trkpt>
      <trkpt lat="43.60013" lon="5.48929">
        <ele>368</ele>
        <time>2012-12-22T08:12:02.000Z</time>
      </trkpt>
      <trkpt lat="43.59991" lon="5.48988">
        <ele>369.79998779297</ele>
        <time>2012-12-22T08:12:19.000Z</time>
      </trkpt>
      <trkpt lat="43.59969" lon="5.49042">
        <ele>370.79998779297</ele>
        <time>2012-12-22T08:12:36.000Z</time>
      </trkpt>
      <trkpt lat="43.59926" lon="5.49061">
        <ele>372.79998779297</ele>
        <time>2012-12-22T08:12:52.000Z</time>
      </trkpt>
      <trkpt lat="43.59881" lon="5.49052">
        <ele>372.60000610352</ele>
        <time>2012-12-22T08:13:07.000Z</time>
      </trkpt>
      <trkpt lat="43.59839" lon="5.49027">
        <ele>371.60000610352</ele>
        <time>2012-12-22T08:13:22.000Z</time>
      </trkpt>
      <trkpt lat="43.59798" lon="5.49022">
        <ele>371.39999389648</ele>
        <time>2012-12-22T08:14:03.000Z</time>
      </trkpt>
      <trkpt lat="43.59763" lon="5.48982">
        <ele>370.60000610352</ele>
        <time>2012-12-22T08:14:17.000Z</time>
      </trkpt>
      <trkpt lat="43.59728" lon="5.48948">
        <ele>369.79998779297</ele>
        <time>2012-12-22T08:14:52.000Z</time>
      </trkpt>
      <trkpt lat="43.59684" lon="5.4897">
        <ele>369</ele>
        <time>2012-12-22T08:15:10.000Z</time>
      </trkpt>
      <trkpt lat="43.59639" lon="5.49">
        <ele>369.60000610352</ele>
        <time>2012-12-22T08:15:27.000Z</time>
      </trkpt>
      <trkpt lat="43.59611" lon="5.49051">
        <ele>375.20001220703</ele>
        <time>2012-12-22T08:15:42.000Z</time>
      </trkpt>
      <trkpt lat="43.59584" lon="5.49092">
        <ele>378.60000610352</ele>
        <time>2012-12-22T08:16:03.000Z</time>
      </trkpt>
      <trkpt lat="43.59558" lon="5.49147">
        <ele>383.60000610352</ele>
        <time>2012-12-22T08:16:25.000Z</time>
      </trkpt>
      <trkpt lat="43.59526" lon="5.49195">
        <ele>386.39999389648</ele>
        <time>2012-12-22T08:16:46.000Z</time>
      </trkpt>
      <trkpt lat="43.59485" lon="5.49229">
        <ele>385.60000610352</ele>
        <time>2012-12-22T08:17:02.000Z</time>
      </trkpt>
      <trkpt lat="43.5946" lon="5.4928">
        <ele>384.39999389648</ele>
        <time>2012-12-22T08:17:13.000Z</time>
      </trkpt>
      <trkpt lat="43.5944" lon="5.49337">
        <ele>383.79998779297</ele>
        <time>2012-12-22T08:17:25.000Z</time>
      </trkpt>
      <trkpt lat="43.59422" lon="5.49397">
        <ele>385.20001220703</ele>
        <time>2012-12-22T08:17:38.000Z</time>
      </trkpt>
      <trkpt lat="43.59406" lon="5.49459">
        <ele>386.60000610352</ele>
        <time>2012-12-22T08:17:52.000Z</time>
      </trkpt>
      <trkpt lat="43.59381" lon="5.49514">
        <ele>385.60000610352</ele>
        <time>2012-12-22T08:18:04.000Z</time>
      </trkpt>
      <trkpt lat="43.59346" lon="5.4956">
        <ele>382.79998779297</ele>
        <time>2012-12-22T08:18:13.000Z</time>
      </trkpt>
      <trkpt lat="43.59313" lon="5.49605">
        <ele>379.79998779297</ele>
        <time>2012-12-22T08:18:20.000Z</time>
      </trkpt>
      <trkpt lat="43.59289" lon="5.49661">
        <ele>377.60000610352</ele>
        <time>2012-12-22T08:18:26.000Z</time>
      </trkpt>
      <trkpt lat="43.59279" lon="5.49721">
        <ele>374.60000610352</ele>
        <time>2012-12-22T08:18:32.000Z</time>
      </trkpt>
      <trkpt lat="43.59267" lon="5.49779">
        <ele>371.60000610352</ele>
        <time>2012-12-22T08:18:37.000Z</time>
      </trkpt>
      <trkpt lat="43.59261" lon="5.49845">
        <ele>369.39999389648</ele>
        <time>2012-12-22T08:18:43.000Z</time>
      </trkpt>
      <trkpt lat="43.59274" lon="5.49904">
        <ele>370.20001220703</ele>
        <time>2012-12-22T08:18:50.000Z</time>
      </trkpt>
      <trkpt lat="43.59274" lon="5.4997">
        <ele>371.20001220703</ele>
        <time>2012-12-22T08:18:59.000Z</time>
      </trkpt>
      <trkpt lat="43.59266" lon="5.50032">
        <ele>370.39999389648</ele>
        <time>2012-12-22T08:19:09.000Z</time>
      </trkpt>
      <trkpt lat="43.59213" lon="5.50028">
        <ele>366</ele>
        <time>2012-12-22T08:19:17.000Z</time>
      </trkpt>
      <trkpt lat="43.59163" lon="5.50027">
        <ele>363</ele>
        <time>2012-12-22T08:19:23.000Z</time>
      </trkpt>
      <trkpt lat="43.59112" lon="5.50025">
        <ele>363</ele>
        <time>2012-12-22T08:19:30.000Z</time>
      </trkpt>
      <trkpt lat="43.59064" lon="5.50008">
        <ele>362</ele>
        <time>2012-12-22T08:19:38.000Z</time>
      </trkpt>
      <trkpt lat="43.59024" lon="5.49982">
        <ele>360.60000610352</ele>
        <time>2012-12-22T08:19:45.000Z</time>
      </trkpt>
      <trkpt lat="43.58975" lon="5.49973">
        <ele>358.79998779297</ele>
        <time>2012-12-22T08:19:53.000Z</time>
      </trkpt>
      <trkpt lat="43.58929" lon="5.49979">
        <ele>357</ele>
        <time>2012-12-22T08:20:00.000Z</time>
      </trkpt>
      <trkpt lat="43.5888" lon="5.49954">
        <ele>354</ele>
        <time>2012-12-22T08:20:07.000Z</time>
      </trkpt>
      <trkpt lat="43.58841" lon="5.49912">
        <ele>350.60000610352</ele>
        <time>2012-12-22T08:20:13.000Z</time>
      </trkpt>
      <trkpt lat="43.588" lon="5.49873">
        <ele>346.20001220703</ele>
        <time>2012-12-22T08:20:19.000Z</time>
      </trkpt>
      <trkpt lat="43.58754" lon="5.49892">
        <ele>346.20001220703</ele>
        <time>2012-12-22T08:20:26.000Z</time>
      </trkpt>
      <trkpt lat="43.58713" lon="5.49915">
        <ele>344.60000610352</ele>
        <time>2012-12-22T08:20:33.000Z</time>
      </trkpt>
      <trkpt lat="43.58668" lon="5.49936">
        <ele>342</ele>
        <time>2012-12-22T08:20:40.000Z</time>
      </trkpt>
      <trkpt lat="43.5862" lon="5.49957">
        <ele>338.79998779297</ele>
        <time>2012-12-22T08:20:47.000Z</time>
      </trkpt>
      <trkpt lat="43.58597" lon="5.49999">
        <ele>338.20001220703</ele>
        <time>2012-12-22T08:20:57.000Z</time>
      </trkpt>
      <trkpt lat="43.58552" lon="5.50017">
        <ele>338</ele>
        <time>2012-12-22T08:21:06.000Z</time>
      </trkpt>
      <trkpt lat="43.58528" lon="5.50065">
        <ele>341.79998779297</ele>
        <time>2012-12-22T08:21:18.000Z</time>
      </trkpt>
      <trkpt lat="43.58517" lon="5.50127">
        <ele>344</ele>
        <time>2012-12-22T08:21:32.000Z</time>
      </trkpt>
      <trkpt lat="43.58489" lon="5.50177">
        <ele>345.39999389648</ele>
        <time>2012-12-22T08:21:46.000Z</time>
      </trkpt>
      <trkpt lat="43.58452" lon="5.50216">
        <ele>343.60000610352</ele>
        <time>2012-12-22T08:21:58.000Z</time>
      </trkpt>
      <trkpt lat="43.58407" lon="5.5024">
        <ele>343.20001220703</ele>
        <time>2012-12-22T08:22:10.000Z</time>
      </trkpt>
      <trkpt lat="43.5836" lon="5.5025">
        <ele>342.79998779297</ele>
        <time>2012-12-22T08:22:19.000Z</time>
      </trkpt>
      <trkpt lat="43.5837" lon="5.50279">
        <ele>342.79998779297</ele>
        <time>2012-12-22T08:22:35.000Z</time>
      </trkpt>
      <trkpt lat="43.58413" lon="5.5031">
        <ele>342.79998779297</ele>
        <time>2012-12-22T08:22:45.000Z</time>
      </trkpt>
      <trkpt lat="43.58455" lon="5.50335">
        <ele>341.60000610352</ele>
        <time>2012-12-22T08:22:56.000Z</time>
      </trkpt>
      <trkpt lat="43.58479" lon="5.5038">
        <ele>341.60000610352</ele>
        <time>2012-12-22T08:23:08.000Z</time>
      </trkpt>
      <trkpt lat="43.58479" lon="5.50444">
        <ele>342</ele>
        <time>2012-12-22T08:23:17.000Z</time>
      </trkpt>
      <trkpt lat="43.58465" lon="5.50505">
        <ele>342.20001220703</ele>
        <time>2012-12-22T08:23:27.000Z</time>
      </trkpt>
      <trkpt lat="43.58419" lon="5.50523">
        <ele>346.20001220703</ele>
        <time>2012-12-22T08:23:45.000Z</time>
      </trkpt>
      <trkpt lat="43.58375" lon="5.50542">
        <ele>351.39999389648</ele>
        <time>2012-12-22T08:24:06.000Z</time>
      </trkpt>
      <trkpt lat="43.58332" lon="5.50564">
        <ele>356.39999389648</ele>
        <time>2012-12-22T08:24:29.000Z</time>
      </trkpt>
      <trkpt lat="43.58308" lon="5.50511">
        <ele>358.20001220703</ele>
        <time>2012-12-22T08:24:56.000Z</time>
      </trkpt>
      <trkpt lat="43.58267" lon="5.50525">
        <ele>359.60000610352</ele>
        <time>2012-12-22T08:25:20.000Z</time>
      </trkpt>
      <trkpt lat="43.5823" lon="5.50566">
        <ele>360.79998779297</ele>
        <time>2012-12-22T08:25:39.000Z</time>
      </trkpt>
      <trkpt lat="43.58196" lon="5.50613">
        <ele>360.60000610352</ele>
        <time>2012-12-22T08:25:56.000Z</time>
      </trkpt>
      <trkpt lat="43.58168" lon="5.50665">
        <ele>363.79998779297</ele>
        <time>2012-12-22T08:26:12.000Z</time>
      </trkpt>
      <trkpt lat="43.58142" lon="5.5072">
        <ele>365.60000610352</ele>
        <time>2012-12-22T08:26:28.000Z</time>
      </trkpt>
      <trkpt lat="43.58118" lon="5.50773">
        <ele>369</ele>
        <time>2012-12-22T08:26:45.000Z</time>
      </trkpt>
      <trkpt lat="43.58098" lon="5.50832">
        <ele>373.39999389648</ele>
        <time>2012-12-22T08:27:02.000Z</time>
      </trkpt>
      <trkpt lat="43.58078" lon="5.50892">
        <ele>377.60000610352</ele>
        <time>2012-12-22T08:27:21.000Z</time>
      </trkpt>
      <trkpt lat="43.58058" lon="5.50952">
        <ele>380</ele>
        <time>2012-12-22T08:27:39.000Z</time>
      </trkpt>
      <trkpt lat="43.58016" lon="5.50978">
        <ele>384.79998779297</ele>
        <time>2012-12-22T08:27:59.000Z</time>
      </trkpt>
      <trkpt lat="43.57975" lon="5.51011">
        <ele>389.60000610352</ele>
        <time>2012-12-22T08:28:20.000Z</time>
      </trkpt>
      <trkpt lat="43.57935" lon="5.51051">
        <ele>394.60000610352</ele>
        <time>2012-12-22T08:28:38.000Z</time>
      </trkpt>
      <trkpt lat="43.57895" lon="5.51084">
        <ele>397.79998779297</ele>
        <time>2012-12-22T08:28:56.000Z</time>
      </trkpt>
      <trkpt lat="43.57865" lon="5.51132">
        <ele>394.20001220703</ele>
        <time>2012-12-22T08:29:29.000Z</time>
      </trkpt>
      <trkpt lat="43.57843" lon="5.5119">
        <ele>392.79998779297</ele>
        <time>2012-12-22T08:29:43.000Z</time>
      </trkpt>
      <trkpt lat="43.57821" lon="5.51249">
        <ele>390.60000610352</ele>
        <time>2012-12-22T08:30:00.000Z</time>
      </trkpt>
      <trkpt lat="43.5781" lon="5.51313">
        <ele>393.60000610352</ele>
        <time>2012-12-22T08:30:09.000Z</time>
      </trkpt>
      <trkpt lat="43.57782" lon="5.51366">
        <ele>401.39999389648</ele>
        <time>2012-12-22T08:30:29.000Z</time>
      </trkpt>
      <trkpt lat="43.57749" lon="5.51411">
        <ele>408.60000610352</ele>
        <time>2012-12-22T08:30:50.000Z</time>
      </trkpt>
      <trkpt lat="43.57721" lon="5.51463">
        <ele>414.79998779297</ele>
        <time>2012-12-22T08:31:11.000Z</time>
      </trkpt>
      <trkpt lat="43.57689" lon="5.51512">
        <ele>418.60000610352</ele>
        <time>2012-12-22T08:31:33.000Z</time>
      </trkpt>
      <trkpt lat="43.57683" lon="5.51579">
        <ele>424</ele>
        <time>2012-12-22T08:31:58.000Z</time>
      </trkpt>
      <trkpt lat="43.57662" lon="5.51638">
        <ele>427.39999389648</ele>
        <time>2012-12-22T08:32:22.000Z</time>
      </trkpt>
      <trkpt lat="43.5765" lon="5.51703">
        <ele>433.39999389648</ele>
        <time>2012-12-22T08:32:46.000Z</time>
      </trkpt>
      <trkpt lat="43.57656" lon="5.51765">
        <ele>439.39999389648</ele>
        <time>2012-12-22T08:33:10.000Z</time>
      </trkpt>
      <trkpt lat="43.57645" lon="5.51829">
        <ele>444.79998779297</ele>
        <time>2012-12-22T08:33:33.000Z</time>
      </trkpt>
      <trkpt lat="43.57615" lon="5.51876">
        <ele>447.20001220703</ele>
        <time>2012-12-22T08:33:54.000Z</time>
      </trkpt>
      <trkpt lat="43.57579" lon="5.51915">
        <ele>451</ele>
        <time>2012-12-22T08:34:15.000Z</time>
      </trkpt>
      <trkpt lat="43.57544" lon="5.51957">
        <ele>453.39999389648</ele>
        <time>2012-12-22T08:34:35.000Z</time>
      </trkpt>
      <trkpt lat="43.57517" lon="5.52008">
        <ele>456.60000610352</ele>
        <time>2012-12-22T08:34:48.000Z</time>
      </trkpt>
      <trkpt lat="43.57501" lon="5.52068">
        <ele>458.60000610352</ele>
        <time>2012-12-22T08:35:04.000Z</time>
      </trkpt>
      <trkpt lat="43.57479" lon="5.52124">
        <ele>458.20001220703</ele>
        <time>2012-12-22T08:35:21.000Z</time>
      </trkpt>
      <trkpt lat="43.57474" lon="5.52183">
        <ele>458.79998779297</ele>
        <time>2012-12-22T08:35:38.000Z</time>
      </trkpt>
      <trkpt lat="43.57473" lon="5.52249">
        <ele>460.20001220703</ele>
        <time>2012-12-22T08:35:54.000Z</time>
      </trkpt>
      <trkpt lat="43.57459" lon="5.52313">
        <ele>460.20001220703</ele>
        <time>2012-12-22T08:36:09.000Z</time>
      </trkpt>
      <trkpt lat="43.57431" lon="5.52363">
        <ele>460.39999389648</ele>
        <time>2012-12-22T08:36:22.000Z</time>
      </trkpt>
      <trkpt lat="43.5742" lon="5.52426">
        <ele>462.20001220703</ele>
        <time>2012-12-22T08:36:35.000Z</time>
      </trkpt>
      <trkpt lat="43.57413" lon="5.52493">
        <ele>459.79998779297</ele>
        <time>2012-12-22T08:36:45.000Z</time>
      </trkpt>
      <trkpt lat="43.57408" lon="5.52556">
        <ele>459.79998779297</ele>
        <time>2012-12-22T08:36:55.000Z</time>
      </trkpt>
      <trkpt lat="43.57402" lon="5.5262">
        <ele>461</ele>
        <time>2012-12-22T08:37:07.000Z</time>
      </trkpt>
      <trkpt lat="43.57397" lon="5.52685">
        <ele>461.79998779297</ele>
        <time>2012-12-22T08:37:19.000Z</time>
      </trkpt>
      <trkpt lat="43.57387" lon="5.5275">
        <ele>459.20001220703</ele>
        <time>2012-12-22T08:37:30.000Z</time>
      </trkpt>
      <trkpt lat="43.57378" lon="5.52811">
        <ele>461.60000610352</ele>
        <time>2012-12-22T08:37:40.000Z</time>
      </trkpt>
      <trkpt lat="43.57379" lon="5.52875">
        <ele>465.20001220703</ele>
        <time>2012-12-22T08:37:53.000Z</time>
      </trkpt>
      <trkpt lat="43.57374" lon="5.5294">
        <ele>469.39999389648</ele>
        <time>2012-12-22T08:38:09.000Z</time>
      </trkpt>
      <trkpt lat="43.57378" lon="5.53005">
        <ele>473.79998779297</ele>
        <time>2012-12-22T08:38:24.000Z</time>
      </trkpt>
      <trkpt lat="43.57378" lon="5.53069">
        <ele>477</ele>
        <time>2012-12-22T08:38:39.000Z</time>
      </trkpt>
      <trkpt lat="43.57381" lon="5.53134">
        <ele>477.39999389648</ele>
        <time>2012-12-22T08:38:54.000Z</time>
      </trkpt>
      <trkpt lat="43.57384" lon="5.53199">
        <ele>477.20001220703</ele>
        <time>2012-12-22T08:39:09.000Z</time>
      </trkpt>
      <trkpt lat="43.5739" lon="5.53262">
        <ele>477.39999389648</ele>
        <time>2012-12-22T08:39:23.000Z</time>
      </trkpt>
      <trkpt lat="43.57383" lon="5.53324">
        <ele>479.20001220703</ele>
        <time>2012-12-22T08:39:37.000Z</time>
      </trkpt>
      <trkpt lat="43.57366" lon="5.53384">
        <ele>478.60000610352</ele>
        <time>2012-12-22T08:39:50.000Z</time>
      </trkpt>
      <trkpt lat="43.57347" lon="5.53445">
        <ele>478.60000610352</ele>
        <time>2012-12-22T08:40:03.000Z</time>
      </trkpt>
      <trkpt lat="43.57316" lon="5.53491">
        <ele>480.60000610352</ele>
        <time>2012-12-22T08:40:14.000Z</time>
      </trkpt>
      <trkpt lat="43.57285" lon="5.5354">
        <ele>482.60000610352</ele>
        <time>2012-12-22T08:40:27.000Z</time>
      </trkpt>
      <trkpt lat="43.57256" lon="5.53594">
        <ele>488</ele>
        <time>2012-12-22T08:40:43.000Z</time>
      </trkpt>
      <trkpt lat="43.5723" lon="5.53646">
        <ele>490.20001220703</ele>
        <time>2012-12-22T08:40:59.000Z</time>
      </trkpt>
      <trkpt lat="43.5721" lon="5.53681">
        <ele>491</ele>
        <time>2012-12-22T08:47:08.000Z</time>
      </trkpt>
      <trkpt lat="43.57185" lon="5.53731">
        <ele>492.20001220703</ele>
        <time>2012-12-22T08:47:34.000Z</time>
      </trkpt>
      <trkpt lat="43.57158" lon="5.53785">
        <ele>494</ele>
        <time>2012-12-22T08:47:51.000Z</time>
      </trkpt>
      <trkpt lat="43.57137" lon="5.53844">
        <ele>495</ele>
        <time>2012-12-22T08:48:06.000Z</time>
      </trkpt>
      <trkpt lat="43.57109" lon="5.53897">
        <ele>495.79998779297</ele>
        <time>2012-12-22T08:48:21.000Z</time>
      </trkpt>
      <trkpt lat="43.57084" lon="5.53954">
        <ele>498.20001220703</ele>
        <time>2012-12-22T08:48:36.000Z</time>
      </trkpt>
      <trkpt lat="43.57073" lon="5.54017">
        <ele>499.79998779297</ele>
        <time>2012-12-22T08:48:51.000Z</time>
      </trkpt>
      <trkpt lat="43.57066" lon="5.54082">
        <ele>503.20001220703</ele>
        <time>2012-12-22T08:49:06.000Z</time>
      </trkpt>
      <trkpt lat="43.5706" lon="5.54147">
        <ele>506.20001220703</ele>
        <time>2012-12-22T08:49:21.000Z</time>
      </trkpt>
      <trkpt lat="43.57051" lon="5.5421">
        <ele>505.79998779297</ele>
        <time>2012-12-22T08:49:35.000Z</time>
      </trkpt>
      <trkpt lat="43.57025" lon="5.54266">
        <ele>505.79998779297</ele>
        <time>2012-12-22T08:49:48.000Z</time>
      </trkpt>
      <trkpt lat="43.56998" lon="5.54319">
        <ele>507.79998779297</ele>
        <time>2012-12-22T08:50:00.000Z</time>
      </trkpt>
      <trkpt lat="43.56957" lon="5.54344">
        <ele>507.79998779297</ele>
        <time>2012-12-22T08:50:11.000Z</time>
      </trkpt>
      <trkpt lat="43.56911" lon="5.54358">
        <ele>507.79998779297</ele>
        <time>2012-12-22T08:50:21.000Z</time>
      </trkpt>
      <trkpt lat="43.56861" lon="5.54359">
        <ele>504.60000610352</ele>
        <time>2012-12-22T08:50:30.000Z</time>
      </trkpt>
      <trkpt lat="43.56813" lon="5.54379">
        <ele>501.39999389648</ele>
        <time>2012-12-22T08:50:38.000Z</time>
      </trkpt>
      <trkpt lat="43.56773" lon="5.54412">
        <ele>499.20001220703</ele>
        <time>2012-12-22T08:50:45.000Z</time>
      </trkpt>
      <trkpt lat="43.5675" lon="5.5447">
        <ele>497.20001220703</ele>
        <time>2012-12-22T08:50:52.000Z</time>
      </trkpt>
      <trkpt lat="43.56746" lon="5.54536">
        <ele>497.39999389648</ele>
        <time>2012-12-22T08:50:59.000Z</time>
      </trkpt>
      <trkpt lat="43.56734" lon="5.54599">
        <ele>498.20001220703</ele>
        <time>2012-12-22T08:51:09.000Z</time>
      </trkpt>
      <trkpt lat="43.56729" lon="5.54663">
        <ele>500.20001220703</ele>
        <time>2012-12-22T08:51:21.000Z</time>
      </trkpt>
      <trkpt lat="43.56725" lon="5.54727">
        <ele>501.20001220703</ele>
        <time>2012-12-22T08:51:33.000Z</time>
      </trkpt>
      <trkpt lat="43.56727" lon="5.54791">
        <ele>501.60000610352</ele>
        <time>2012-12-22T08:51:45.000Z</time>
      </trkpt>
      <trkpt lat="43.56732" lon="5.54853">
        <ele>501.60000610352</ele>
        <time>2012-12-22T08:51:57.000Z</time>
      </trkpt>
      <trkpt lat="43.56752" lon="5.54909">
        <ele>501</ele>
        <time>2012-12-22T08:52:08.000Z</time>
      </trkpt>
      <trkpt lat="43.56779" lon="5.54961">
        <ele>500.79998779297</ele>
        <time>2012-12-22T08:52:18.000Z</time>
      </trkpt>
      <trkpt lat="43.56795" lon="5.55021">
        <ele>501.39999389648</ele>
        <time>2012-12-22T08:52:29.000Z</time>
      </trkpt>
      <trkpt lat="43.56805" lon="5.55085">
        <ele>502</ele>
        <time>2012-12-22T08:52:41.000Z</time>
      </trkpt>
      <trkpt lat="43.56816" lon="5.55146">
        <ele>502.60000610352</ele>
        <time>2012-12-22T08:52:52.000Z</time>
      </trkpt>
      <trkpt lat="43.56831" lon="5.55205">
        <ele>504.20001220703</ele>
        <time>2012-12-22T08:53:03.000Z</time>
      </trkpt>
      <trkpt lat="43.5685" lon="5.55266">
        <ele>506.39999389648</ele>
        <time>2012-12-22T08:53:15.000Z</time>
      </trkpt>
      <trkpt lat="43.56866" lon="5.55327">
        <ele>508.60000610352</ele>
        <time>2012-12-22T08:53:27.000Z</time>
      </trkpt>
      <trkpt lat="43.56882" lon="5.55385">
        <ele>508.20001220703</ele>
        <time>2012-12-22T08:53:42.000Z</time>
      </trkpt>
      <trkpt lat="43.56909" lon="5.5544">
        <ele>507.60000610352</ele>
        <time>2012-12-22T08:53:59.000Z</time>
      </trkpt>
      <trkpt lat="43.56945" lon="5.5548">
        <ele>507.60000610352</ele>
        <time>2012-12-22T08:54:12.000Z</time>
      </trkpt>
      <trkpt lat="43.56986" lon="5.55513">
        <ele>507</ele>
        <time>2012-12-22T08:54:23.000Z</time>
      </trkpt>
      <trkpt lat="43.57022" lon="5.55555">
        <ele>503.79998779297</ele>
        <time>2012-12-22T08:54:32.000Z</time>
      </trkpt>
      <trkpt lat="43.57058" lon="5.55603">
        <ele>499.39999389648</ele>
        <time>2012-12-22T08:54:40.000Z</time>
      </trkpt>
      <trkpt lat="43.57096" lon="5.55642">
        <ele>496</ele>
        <time>2012-12-22T08:54:47.000Z</time>
      </trkpt>
      <trkpt lat="43.57138" lon="5.55672">
        <ele>493.60000610352</ele>
        <time>2012-12-22T08:54:54.000Z</time>
      </trkpt>
      <trkpt lat="43.57181" lon="5.55699">
        <ele>489.20001220703</ele>
        <time>2012-12-22T08:55:01.000Z</time>
      </trkpt>
      <trkpt lat="43.57229" lon="5.55721">
        <ele>484.39999389648</ele>
        <time>2012-12-22T08:55:08.000Z</time>
      </trkpt>
      <trkpt lat="43.57276" lon="5.5575">
        <ele>482.20001220703</ele>
        <time>2012-12-22T08:55:15.000Z</time>
      </trkpt>
      <trkpt lat="43.57325" lon="5.55766">
        <ele>478</ele>
        <time>2012-12-22T08:55:22.000Z</time>
      </trkpt>
      <trkpt lat="43.57375" lon="5.55767">
        <ele>472.20001220703</ele>
        <time>2012-12-22T08:55:29.000Z</time>
      </trkpt>
      <trkpt lat="43.57425" lon="5.55771">
        <ele>466.20001220703</ele>
        <time>2012-12-22T08:55:37.000Z</time>
      </trkpt>
      <trkpt lat="43.57446" lon="5.55832">
        <ele>464</ele>
        <time>2012-12-22T08:55:46.000Z</time>
      </trkpt>
      <trkpt lat="43.57439" lon="5.55895">
        <ele>456.60000610352</ele>
        <time>2012-12-22T08:55:54.000Z</time>
      </trkpt>
      <trkpt lat="43.5748" lon="5.55864">
        <ele>455.39999389648</ele>
        <time>2012-12-22T08:56:03.000Z</time>
      </trkpt>
      <trkpt lat="43.57523" lon="5.55845">
        <ele>451.20001220703</ele>
        <time>2012-12-22T08:56:09.000Z</time>
      </trkpt>
      <trkpt lat="43.57569" lon="5.55846">
        <ele>443</ele>
        <time>2012-12-22T08:56:14.000Z</time>
      </trkpt>
      <trkpt lat="43.57615" lon="5.55849">
        <ele>437.60000610352</ele>
        <time>2012-12-22T08:56:19.000Z</time>
      </trkpt>
      <trkpt lat="43.57661" lon="5.5585">
        <ele>433.79998779297</ele>
        <time>2012-12-22T08:56:24.000Z</time>
      </trkpt>
      <trkpt lat="43.57708" lon="5.55843">
        <ele>430.20001220703</ele>
        <time>2012-12-22T08:56:29.000Z</time>
      </trkpt>
      <trkpt lat="43.57757" lon="5.55825">
        <ele>426.20001220703</ele>
        <time>2012-12-22T08:56:34.000Z</time>
      </trkpt>
      <trkpt lat="43.57805" lon="5.5582">
        <ele>419.79998779297</ele>
        <time>2012-12-22T08:56:39.000Z</time>
      </trkpt>
      <trkpt lat="43.57844" lon="5.55782">
        <ele>414.79998779297</ele>
        <time>2012-12-22T08:56:44.000Z</time>
      </trkpt>
      <trkpt lat="43.5787" lon="5.55726">
        <ele>407.60000610352</ele>
        <time>2012-12-22T08:56:49.000Z</time>
      </trkpt>
      <trkpt lat="43.57838" lon="5.55705">
        <ele>409.60000610352</ele>
        <time>2012-12-22T08:56:57.000Z</time>
      </trkpt>
      <trkpt lat="43.57785" lon="5.5572">
        <ele>417</ele>
        <time>2012-12-22T08:57:04.000Z</time>
      </trkpt>
      <trkpt lat="43.57769" lon="5.55689">
        <ele>417.20001220703</ele>
        <time>2012-12-22T08:57:11.000Z</time>
      </trkpt>
      <trkpt lat="43.57813" lon="5.55648">
        <ele>408.60000610352</ele>
        <time>2012-12-22T08:57:17.000Z</time>
      </trkpt>
      <trkpt lat="43.5785" lon="5.556">
        <ele>402.60000610352</ele>
        <time>2012-12-22T08:57:22.000Z</time>
      </trkpt>
      <trkpt lat="43.57899" lon="5.55577">
        <ele>396.39999389648</ele>
        <time>2012-12-22T08:57:27.000Z</time>
      </trkpt>
      <trkpt lat="43.57944" lon="5.55543">
        <ele>391.20001220703</ele>
        <time>2012-12-22T08:57:33.000Z</time>
      </trkpt>
      <trkpt lat="43.57985" lon="5.55528">
        <ele>387.20001220703</ele>
        <time>2012-12-22T08:57:49.000Z</time>
      </trkpt>
      <trkpt lat="43.58031" lon="5.55549">
        <ele>390.20001220703</ele>
        <time>2012-12-22T08:58:11.000Z</time>
      </trkpt>
      <trkpt lat="43.5808" lon="5.55549">
        <ele>395.39999389648</ele>
        <time>2012-12-22T08:58:32.000Z</time>
      </trkpt>
      <trkpt lat="43.58127" lon="5.55565">
        <ele>400.20001220703</ele>
        <time>2012-12-22T08:58:57.000Z</time>
      </trkpt>
      <trkpt lat="43.58155" lon="5.55615">
        <ele>402.60000610352</ele>
        <time>2012-12-22T08:59:19.000Z</time>
      </trkpt>
      <trkpt lat="43.58161" lon="5.55677">
        <ele>406</ele>
        <time>2012-12-22T08:59:38.000Z</time>
      </trkpt>
      <trkpt lat="43.58179" lon="5.55735">
        <ele>407.79998779297</ele>
        <time>2012-12-22T08:59:57.000Z</time>
      </trkpt>
      <trkpt lat="43.58219" lon="5.55767">
        <ele>411</ele>
        <time>2012-12-22T09:00:20.000Z</time>
      </trkpt>
      <trkpt lat="43.58266" lon="5.55758">
        <ele>414.60000610352</ele>
        <time>2012-12-22T09:00:43.000Z</time>
      </trkpt>
      <trkpt lat="43.58308" lon="5.55767">
        <ele>422.20001220703</ele>
        <time>2012-12-22T09:01:05.000Z</time>
      </trkpt>
      <trkpt lat="43.58321" lon="5.55828">
        <ele>420.79998779297</ele>
        <time>2012-12-22T09:01:27.000Z</time>
      </trkpt>
      <trkpt lat="43.58345" lon="5.5588">
        <ele>425.79998779297</ele>
        <time>2012-12-22T09:01:49.000Z</time>
      </trkpt>
      <trkpt lat="43.58381" lon="5.55924">
        <ele>430.60000610352</ele>
        <time>2012-12-22T09:02:10.000Z</time>
      </trkpt>
      <trkpt lat="43.58413" lon="5.5597">
        <ele>431.79998779297</ele>
        <time>2012-12-22T09:02:32.000Z</time>
      </trkpt>
      <trkpt lat="43.58459" lon="5.5598">
        <ele>436.79998779297</ele>
        <time>2012-12-22T09:02:55.000Z</time>
      </trkpt>
      <trkpt lat="43.58494" lon="5.55936">
        <ele>439.20001220703</ele>
        <time>2012-12-22T09:03:17.000Z</time>
      </trkpt>
      <trkpt lat="43.58532" lon="5.55899">
        <ele>443.39999389648</ele>
        <time>2012-12-22T09:03:37.000Z</time>
      </trkpt>
      <trkpt lat="43.58577" lon="5.55874">
        <ele>447.60000610352</ele>
        <time>2012-12-22T09:03:59.000Z</time>
      </trkpt>
      <trkpt lat="43.58627" lon="5.5589">
        <ele>451</ele>
        <time>2012-12-22T09:04:22.000Z</time>
      </trkpt>
      <trkpt lat="43.58658" lon="5.55936">
        <ele>450.20001220703</ele>
        <time>2012-12-22T09:04:44.000Z</time>
      </trkpt>
      <trkpt lat="43.58667" lon="5.56">
        <ele>450</ele>
        <time>2012-12-22T09:05:04.000Z</time>
      </trkpt>
      <trkpt lat="43.58692" lon="5.56042">
        <ele>455.20001220703</ele>
        <time>2012-12-22T09:05:24.000Z</time>
      </trkpt>
      <trkpt lat="43.58739" lon="5.56042">
        <ele>455.79998779297</ele>
        <time>2012-12-22T09:05:46.000Z</time>
      </trkpt>
      <trkpt lat="43.58769" lon="5.55991">
        <ele>457.20001220703</ele>
        <time>2012-12-22T09:06:11.000Z</time>
      </trkpt>
      <trkpt lat="43.58814" lon="5.5599">
        <ele>461.39999389648</ele>
        <time>2012-12-22T09:06:37.000Z</time>
      </trkpt>
      <trkpt lat="43.58861" lon="5.55967">
        <ele>468.60000610352</ele>
        <time>2012-12-22T09:07:01.000Z</time>
      </trkpt>
      <trkpt lat="43.58907" lon="5.5598">
        <ele>472.20001220703</ele>
        <time>2012-12-22T09:07:27.000Z</time>
      </trkpt>
      <trkpt lat="43.58959" lon="5.55998">
        <ele>474.20001220703</ele>
        <time>2012-12-22T09:07:55.000Z</time>
      </trkpt>
      <trkpt lat="43.5901" lon="5.56004">
        <ele>477.79998779297</ele>
        <time>2012-12-22T09:08:19.000Z</time>
      </trkpt>
      <trkpt lat="43.59052" lon="5.56042">
        <ele>483.60000610352</ele>
        <time>2012-12-22T09:08:44.000Z</time>
      </trkpt>
      <trkpt lat="43.59085" lon="5.56093">
        <ele>483.39999389648</ele>
        <time>2012-12-22T09:09:12.000Z</time>
      </trkpt>
      <trkpt lat="43.59133" lon="5.56082">
        <ele>486.20001220703</ele>
        <time>2012-12-22T09:09:41.000Z</time>
      </trkpt>
      <trkpt lat="43.59181" lon="5.56068">
        <ele>491.20001220703</ele>
        <time>2012-12-22T09:10:05.000Z</time>
      </trkpt>
      <trkpt lat="43.59224" lon="5.56073">
        <ele>492.60000610352</ele>
        <time>2012-12-22T09:10:25.000Z</time>
      </trkpt>
      <trkpt lat="43.59262" lon="5.56047">
        <ele>496.79998779297</ele>
        <time>2012-12-22T09:10:49.000Z</time>
      </trkpt>
      <trkpt lat="43.59304" lon="5.56014">
        <ele>499.20001220703</ele>
        <time>2012-12-22T09:11:30.000Z</time>
      </trkpt>
      <trkpt lat="43.59347" lon="5.55997">
        <ele>500.20001220703</ele>
        <time>2012-12-22T09:11:51.000Z</time>
      </trkpt>
      <trkpt lat="43.59391" lon="5.55977">
        <ele>504.20001220703</ele>
        <time>2012-12-22T09:12:14.000Z</time>
      </trkpt>
      <trkpt lat="43.59441" lon="5.5599">
        <ele>506.20001220703</ele>
        <time>2012-12-22T09:12:39.000Z</time>
      </trkpt>
      <trkpt lat="43.59488" lon="5.55997">
        <ele>508.39999389648</ele>
        <time>2012-12-22T09:13:01.000Z</time>
      </trkpt>
      <trkpt lat="43.59527" lon="5.56034">
        <ele>510.79998779297</ele>
        <time>2012-12-22T09:13:24.000Z</time>
      </trkpt>
      <trkpt lat="43.59534" lon="5.56092">
        <ele>512.79998779297</ele>
        <time>2012-12-22T09:18:59.000Z</time>
      </trkpt>
      <trkpt lat="43.59542" lon="5.56158">
        <ele>514.59997558594</ele>
        <time>2012-12-22T09:19:18.000Z</time>
      </trkpt>
      <trkpt lat="43.59543" lon="5.56221">
        <ele>516.20001220703</ele>
        <time>2012-12-22T09:19:34.000Z</time>
      </trkpt>
      <trkpt lat="43.59544" lon="5.56285">
        <ele>518.20001220703</ele>
        <time>2012-12-22T09:19:49.000Z</time>
      </trkpt>
      <trkpt lat="43.59546" lon="5.5635">
        <ele>520.40002441406</ele>
        <time>2012-12-22T09:20:06.000Z</time>
      </trkpt>
      <trkpt lat="43.59542" lon="5.56411">
        <ele>522.59997558594</ele>
        <time>2012-12-22T09:20:21.000Z</time>
      </trkpt>
      <trkpt lat="43.59552" lon="5.56475">
        <ele>524</ele>
        <time>2012-12-22T09:20:38.000Z</time>
      </trkpt>
      <trkpt lat="43.59548" lon="5.56539">
        <ele>526.79998779297</ele>
        <time>2012-12-22T09:20:55.000Z</time>
      </trkpt>
      <trkpt lat="43.59546" lon="5.56602">
        <ele>529.79998779297</ele>
        <time>2012-12-22T09:21:11.000Z</time>
      </trkpt>
      <trkpt lat="43.59546" lon="5.56666">
        <ele>531.40002441406</ele>
        <time>2012-12-22T09:21:26.000Z</time>
      </trkpt>
      <trkpt lat="43.59574" lon="5.56716">
        <ele>532</ele>
        <time>2012-12-22T09:21:41.000Z</time>
      </trkpt>
      <trkpt lat="43.59607" lon="5.56762">
        <ele>535.20001220703</ele>
        <time>2012-12-22T09:21:57.000Z</time>
      </trkpt>
      <trkpt lat="43.59625" lon="5.56819">
        <ele>538.79998779297</ele>
        <time>2012-12-22T09:22:13.000Z</time>
      </trkpt>
      <trkpt lat="43.59644" lon="5.56883">
        <ele>542</ele>
        <time>2012-12-22T09:22:29.000Z</time>
      </trkpt>
      <trkpt lat="43.59639" lon="5.56945">
        <ele>542</ele>
        <time>2012-12-22T09:22:44.000Z</time>
      </trkpt>
      <trkpt lat="43.59638" lon="5.57011">
        <ele>540.59997558594</ele>
        <time>2012-12-22T09:22:59.000Z</time>
      </trkpt>
      <trkpt lat="43.59639" lon="5.57074">
        <ele>539.20001220703</ele>
        <time>2012-12-22T09:23:12.000Z</time>
      </trkpt>
      <trkpt lat="43.59606" lon="5.57125">
        <ele>536.59997558594</ele>
        <time>2012-12-22T09:23:23.000Z</time>
      </trkpt>
      <trkpt lat="43.59579" lon="5.57176">
        <ele>535.20001220703</ele>
        <time>2012-12-22T09:23:32.000Z</time>
      </trkpt>
      <trkpt lat="43.59555" lon="5.57232">
        <ele>531.79998779297</ele>
        <time>2012-12-22T09:23:41.000Z</time>
      </trkpt>
      <trkpt lat="43.59536" lon="5.5729">
        <ele>531</ele>
        <time>2012-12-22T09:23:50.000Z</time>
      </trkpt>
      <trkpt lat="43.59511" lon="5.57342">
        <ele>531.79998779297</ele>
        <time>2012-12-22T09:24:00.000Z</time>
      </trkpt>
      <trkpt lat="43.59487" lon="5.574">
        <ele>531</ele>
        <time>2012-12-22T09:24:10.000Z</time>
      </trkpt>
      <trkpt lat="43.59461" lon="5.57452">
        <ele>531.79998779297</ele>
        <time>2012-12-22T09:24:20.000Z</time>
      </trkpt>
      <trkpt lat="43.59448" lon="5.57514">
        <ele>533</ele>
        <time>2012-12-22T09:24:30.000Z</time>
      </trkpt>
      <trkpt lat="43.59443" lon="5.57578">
        <ele>534.40002441406</ele>
        <time>2012-12-22T09:24:40.000Z</time>
      </trkpt>
      <trkpt lat="43.59428" lon="5.5764">
        <ele>535.40002441406</ele>
        <time>2012-12-22T09:24:50.000Z</time>
      </trkpt>
      <trkpt lat="43.59415" lon="5.57705">
        <ele>535.59997558594</ele>
        <time>2012-12-22T09:25:00.000Z</time>
      </trkpt>
      <trkpt lat="43.59394" lon="5.57764">
        <ele>537.20001220703</ele>
        <time>2012-12-22T09:25:10.000Z</time>
      </trkpt>
      <trkpt lat="43.59377" lon="5.57825">
        <ele>539.59997558594</ele>
        <time>2012-12-22T09:25:20.000Z</time>
      </trkpt>
      <trkpt lat="43.59359" lon="5.57887">
        <ele>541.79998779297</ele>
        <time>2012-12-22T09:25:31.000Z</time>
      </trkpt>
      <trkpt lat="43.59345" lon="5.57948">
        <ele>543.40002441406</ele>
        <time>2012-12-22T09:25:42.000Z</time>
      </trkpt>
      <trkpt lat="43.59321" lon="5.58007">
        <ele>545</ele>
        <time>2012-12-22T09:25:54.000Z</time>
      </trkpt>
      <trkpt lat="43.59293" lon="5.58056">
        <ele>544.79998779297</ele>
        <time>2012-12-22T09:26:06.000Z</time>
      </trkpt>
      <trkpt lat="43.59253" lon="5.58088">
        <ele>544.79998779297</ele>
        <time>2012-12-22T09:26:17.000Z</time>
      </trkpt>
      <trkpt lat="43.59215" lon="5.5813">
        <ele>544.79998779297</ele>
        <time>2012-12-22T09:26:28.000Z</time>
      </trkpt>
      <trkpt lat="43.59185" lon="5.58179">
        <ele>545.40002441406</ele>
        <time>2012-12-22T09:26:38.000Z</time>
      </trkpt>
      <trkpt lat="43.59151" lon="5.5822">
        <ele>547</ele>
        <time>2012-12-22T09:26:48.000Z</time>
      </trkpt>
      <trkpt lat="43.59158" lon="5.58283">
        <ele>548</ele>
        <time>2012-12-22T09:26:59.000Z</time>
      </trkpt>
      <trkpt lat="43.59139" lon="5.58342">
        <ele>549.20001220703</ele>
        <time>2012-12-22T09:27:10.000Z</time>
      </trkpt>
      <trkpt lat="43.59122" lon="5.584">
        <ele>550.59997558594</ele>
        <time>2012-12-22T09:27:21.000Z</time>
      </trkpt>
      <trkpt lat="43.59105" lon="5.58459">
        <ele>551.59997558594</ele>
        <time>2012-12-22T09:27:32.000Z</time>
      </trkpt>
      <trkpt lat="43.59091" lon="5.58521">
        <ele>551.79998779297</ele>
        <time>2012-12-22T09:27:42.000Z</time>
      </trkpt>
      <trkpt lat="43.59071" lon="5.58583">
        <ele>551.20001220703</ele>
        <time>2012-12-22T09:27:52.000Z</time>
      </trkpt>
      <trkpt lat="43.59058" lon="5.58647">
        <ele>550.20001220703</ele>
        <time>2012-12-22T09:28:02.000Z</time>
      </trkpt>
      <trkpt lat="43.59051" lon="5.58709">
        <ele>550.40002441406</ele>
        <time>2012-12-22T09:28:14.000Z</time>
      </trkpt>
      <trkpt lat="43.59059" lon="5.58741">
        <ele>550.79998779297</ele>
        <time>2012-12-22T09:31:16.000Z</time>
      </trkpt>
      <trkpt lat="43.59098" lon="5.587">
        <ele>549.20001220703</ele>
        <time>2012-12-22T09:31:26.000Z</time>
      </trkpt>
      <trkpt lat="43.59123" lon="5.58642">
        <ele>545.79998779297</ele>
        <time>2012-12-22T09:31:33.000Z</time>
      </trkpt>
      <trkpt lat="43.59172" lon="5.58613">
        <ele>541.59997558594</ele>
        <time>2012-12-22T09:31:40.000Z</time>
      </trkpt>
      <trkpt lat="43.59214" lon="5.58579">
        <ele>538</ele>
        <time>2012-12-22T09:31:45.000Z</time>
      </trkpt>
      <trkpt lat="43.59256" lon="5.58538">
        <ele>535.59997558594</ele>
        <time>2012-12-22T09:31:50.000Z</time>
      </trkpt>
      <trkpt lat="43.59296" lon="5.58495">
        <ele>535.20001220703</ele>
        <time>2012-12-22T09:31:55.000Z</time>
      </trkpt>
      <trkpt lat="43.59328" lon="5.58443">
        <ele>530.59997558594</ele>
        <time>2012-12-22T09:32:00.000Z</time>
      </trkpt>
      <trkpt lat="43.59356" lon="5.58386">
        <ele>528</ele>
        <time>2012-12-22T09:32:05.000Z</time>
      </trkpt>
      <trkpt lat="43.59381" lon="5.58329">
        <ele>524.20001220703</ele>
        <time>2012-12-22T09:32:10.000Z</time>
      </trkpt>
      <trkpt lat="43.59411" lon="5.58277">
        <ele>519.79998779297</ele>
        <time>2012-12-22T09:32:15.000Z</time>
      </trkpt>
      <trkpt lat="43.5944" lon="5.58223">
        <ele>520</ele>
        <time>2012-12-22T09:32:20.000Z</time>
      </trkpt>
      <trkpt lat="43.59473" lon="5.58175">
        <ele>519.20001220703</ele>
        <time>2012-12-22T09:32:25.000Z</time>
      </trkpt>
      <trkpt lat="43.59513" lon="5.5814">
        <ele>517.79998779297</ele>
        <time>2012-12-22T09:32:30.000Z</time>
      </trkpt>
      <trkpt lat="43.59553" lon="5.5811">
        <ele>516.79998779297</ele>
        <time>2012-12-22T09:32:35.000Z</time>
      </trkpt>
      <trkpt lat="43.59595" lon="5.58089">
        <ele>513.20001220703</ele>
        <time>2012-12-22T09:32:40.000Z</time>
      </trkpt>
      <trkpt lat="43.5964" lon="5.58097">
        <ele>511</ele>
        <time>2012-12-22T09:32:45.000Z</time>
      </trkpt>
      <trkpt lat="43.5969" lon="5.58093">
        <ele>510.39999389648</ele>
        <time>2012-12-22T09:32:51.000Z</time>
      </trkpt>
      <trkpt lat="43.59714" lon="5.5804">
        <ele>510</ele>
        <time>2012-12-22T09:32:56.000Z</time>
      </trkpt>
      <trkpt lat="43.59739" lon="5.57988">
        <ele>507.20001220703</ele>
        <time>2012-12-22T09:33:01.000Z</time>
      </trkpt>
      <trkpt lat="43.59787" lon="5.57984">
        <ele>503</ele>
        <time>2012-12-22T09:33:07.000Z</time>
      </trkpt>
      <trkpt lat="43.59835" lon="5.57988">
        <ele>498.60000610352</ele>
        <time>2012-12-22T09:33:12.000Z</time>
      </trkpt>
      <trkpt lat="43.59884" lon="5.57979">
        <ele>498.60000610352</ele>
        <time>2012-12-22T09:33:17.000Z</time>
      </trkpt>
      <trkpt lat="43.59913" lon="5.57913">
        <ele>492.60000610352</ele>
        <time>2012-12-22T09:33:22.000Z</time>
      </trkpt>
      <trkpt lat="43.59939" lon="5.57856">
        <ele>490.60000610352</ele>
        <time>2012-12-22T09:33:27.000Z</time>
      </trkpt>
      <trkpt lat="43.59981" lon="5.57815">
        <ele>482.20001220703</ele>
        <time>2012-12-22T09:33:32.000Z</time>
      </trkpt>
      <trkpt lat="43.60017" lon="5.5776">
        <ele>473</ele>
        <time>2012-12-22T09:33:37.000Z</time>
      </trkpt>
      <trkpt lat="43.6003" lon="5.57703">
        <ele>470.20001220703</ele>
        <time>2012-12-22T09:33:43.000Z</time>
      </trkpt>
      <trkpt lat="43.60069" lon="5.57683">
        <ele>466.79998779297</ele>
        <time>2012-12-22T09:33:49.000Z</time>
      </trkpt>
      <trkpt lat="43.60112" lon="5.57723">
        <ele>464.20001220703</ele>
        <time>2012-12-22T09:33:54.000Z</time>
      </trkpt>
      <trkpt lat="43.60149" lon="5.57774">
        <ele>461.20001220703</ele>
        <time>2012-12-22T09:34:00.000Z</time>
      </trkpt>
      <trkpt lat="43.60196" lon="5.57787">
        <ele>456.39999389648</ele>
        <time>2012-12-22T09:34:06.000Z</time>
      </trkpt>
      <trkpt lat="43.60242" lon="5.57807">
        <ele>452.79998779297</ele>
        <time>2012-12-22T09:34:12.000Z</time>
      </trkpt>
      <trkpt lat="43.60286" lon="5.57769">
        <ele>447</ele>
        <time>2012-12-22T09:34:20.000Z</time>
      </trkpt>
      <trkpt lat="43.60331" lon="5.57747">
        <ele>441.79998779297</ele>
        <time>2012-12-22T09:34:26.000Z</time>
      </trkpt>
      <trkpt lat="43.60376" lon="5.57751">
        <ele>438.79998779297</ele>
        <time>2012-12-22T09:34:31.000Z</time>
      </trkpt>
      <trkpt lat="43.60427" lon="5.57762">
        <ele>437</ele>
        <time>2012-12-22T09:34:37.000Z</time>
      </trkpt>
      <trkpt lat="43.60472" lon="5.57765">
        <ele>433.60000610352</ele>
        <time>2012-12-22T09:34:46.000Z</time>
      </trkpt>
      <trkpt lat="43.60514" lon="5.57757">
        <ele>430</ele>
        <time>2012-12-22T09:37:07.000Z</time>
      </trkpt>
      <trkpt lat="43.60561" lon="5.57736">
        <ele>426.60000610352</ele>
        <time>2012-12-22T09:37:20.000Z</time>
      </trkpt>
      <trkpt lat="43.606" lon="5.57689">
        <ele>424.60000610352</ele>
        <time>2012-12-22T09:37:30.000Z</time>
      </trkpt>
      <trkpt lat="43.60603" lon="5.57622">
        <ele>423.79998779297</ele>
        <time>2012-12-22T09:37:39.000Z</time>
      </trkpt>
      <trkpt lat="43.60635" lon="5.57585">
        <ele>420.20001220703</ele>
        <time>2012-12-22T09:37:46.000Z</time>
      </trkpt>
      <trkpt lat="43.60675" lon="5.57613">
        <ele>417.20001220703</ele>
        <time>2012-12-22T09:37:52.000Z</time>
      </trkpt>
      <trkpt lat="43.60705" lon="5.57655">
        <ele>417.60000610352</ele>
        <time>2012-12-22T09:37:58.000Z</time>
      </trkpt>
      <trkpt lat="43.60743" lon="5.5762">
        <ele>416.79998779297</ele>
        <time>2012-12-22T09:38:04.000Z</time>
      </trkpt>
      <trkpt lat="43.60779" lon="5.5758">
        <ele>414.79998779297</ele>
        <time>2012-12-22T09:38:10.000Z</time>
      </trkpt>
      <trkpt lat="43.60825" lon="5.57575">
        <ele>412.79998779297</ele>
        <time>2012-12-22T09:38:16.000Z</time>
      </trkpt>
      <trkpt lat="43.60873" lon="5.57604">
        <ele>410.79998779297</ele>
        <time>2012-12-22T09:38:22.000Z</time>
      </trkpt>
      <trkpt lat="43.60919" lon="5.57606">
        <ele>408</ele>
        <time>2012-12-22T09:38:28.000Z</time>
      </trkpt>
      <trkpt lat="43.60953" lon="5.57564">
        <ele>406.60000610352</ele>
        <time>2012-12-22T09:38:34.000Z</time>
      </trkpt>
      <trkpt lat="43.61003" lon="5.57562">
        <ele>404.20001220703</ele>
        <time>2012-12-22T09:38:40.000Z</time>
      </trkpt>
      <trkpt lat="43.61049" lon="5.57541">
        <ele>400.60000610352</ele>
        <time>2012-12-22T09:38:46.000Z</time>
      </trkpt>
      <trkpt lat="43.61096" lon="5.57545">
        <ele>396.39999389648</ele>
        <time>2012-12-22T09:38:52.000Z</time>
      </trkpt>
      <trkpt lat="43.61135" lon="5.57586">
        <ele>394.20001220703</ele>
        <time>2012-12-22T09:38:58.000Z</time>
      </trkpt>
      <trkpt lat="43.61181" lon="5.57584">
        <ele>393.20001220703</ele>
        <time>2012-12-22T09:39:04.000Z</time>
      </trkpt>
      <trkpt lat="43.61224" lon="5.57608">
        <ele>394.39999389648</ele>
        <time>2012-12-22T09:39:10.000Z</time>
      </trkpt>
      <trkpt lat="43.6126" lon="5.57652">
        <ele>392.79998779297</ele>
        <time>2012-12-22T09:39:16.000Z</time>
      </trkpt>
      <trkpt lat="43.61307" lon="5.5764">
        <ele>392.39999389648</ele>
        <time>2012-12-22T09:39:23.000Z</time>
      </trkpt>
      <trkpt lat="43.61352" lon="5.57645">
        <ele>390</ele>
        <time>2012-12-22T09:39:30.000Z</time>
      </trkpt>
      <trkpt lat="43.61394" lon="5.57635">
        <ele>389.20001220703</ele>
        <time>2012-12-22T09:39:36.000Z</time>
      </trkpt>
      <trkpt lat="43.61429" lon="5.57654">
        <ele>383.79998779297</ele>
        <time>2012-12-22T09:39:44.000Z</time>
      </trkpt>
      <trkpt lat="43.61455" lon="5.57709">
        <ele>381.39999389648</ele>
        <time>2012-12-22T09:39:50.000Z</time>
      </trkpt>
      <trkpt lat="43.61502" lon="5.5774">
        <ele>370.60000610352</ele>
        <time>2012-12-22T09:39:56.000Z</time>
      </trkpt>
      <trkpt lat="43.61525" lon="5.57795">
        <ele>372.20001220703</ele>
        <time>2012-12-22T09:40:02.000Z</time>
      </trkpt>
      <trkpt lat="43.61563" lon="5.57833">
        <ele>368</ele>
        <time>2012-12-22T09:40:08.000Z</time>
      </trkpt>
      <trkpt lat="43.61575" lon="5.57894">
        <ele>362.20001220703</ele>
        <time>2012-12-22T09:40:13.000Z</time>
      </trkpt>
      <trkpt lat="43.61617" lon="5.57937">
        <ele>362.60000610352</ele>
        <time>2012-12-22T09:40:19.000Z</time>
      </trkpt>
      <trkpt lat="43.6165" lon="5.57982">
        <ele>358.39999389648</ele>
        <time>2012-12-22T09:40:24.000Z</time>
      </trkpt>
      <trkpt lat="43.6169" lon="5.58">
        <ele>355.20001220703</ele>
        <time>2012-12-22T09:40:30.000Z</time>
      </trkpt>
      <trkpt lat="43.61723" lon="5.58043">
        <ele>355.79998779297</ele>
        <time>2012-12-22T09:40:36.000Z</time>
      </trkpt>
      <trkpt lat="43.61754" lon="5.58093">
        <ele>347.39999389648</ele>
        <time>2012-12-22T09:40:41.000Z</time>
      </trkpt>
      <trkpt lat="43.61801" lon="5.58092">
        <ele>343.60000610352</ele>
        <time>2012-12-22T09:40:48.000Z</time>
      </trkpt>
      <trkpt lat="43.6183" lon="5.58142">
        <ele>338.39999389648</ele>
        <time>2012-12-22T09:40:55.000Z</time>
      </trkpt>
      <trkpt lat="43.61871" lon="5.58175">
        <ele>333.60000610352</ele>
        <time>2012-12-22T09:41:01.000Z</time>
      </trkpt>
      <trkpt lat="43.61919" lon="5.58162">
        <ele>328.60000610352</ele>
        <time>2012-12-22T09:41:07.000Z</time>
      </trkpt>
      <trkpt lat="43.61967" lon="5.58153">
        <ele>326.20001220703</ele>
        <time>2012-12-22T09:41:13.000Z</time>
      </trkpt>
      <trkpt lat="43.62018" lon="5.58161">
        <ele>322</ele>
        <time>2012-12-22T09:41:19.000Z</time>
      </trkpt>
      <trkpt lat="43.62046" lon="5.58202">
        <ele>318.20001220703</ele>
        <time>2012-12-22T09:41:31.000Z</time>
      </trkpt>
      <trkpt lat="43.62071" lon="5.58251">
        <ele>312.79998779297</ele>
        <time>2012-12-22T09:41:48.000Z</time>
      </trkpt>
      <trkpt lat="43.62117" lon="5.5823">
        <ele>314.20001220703</ele>
        <time>2012-12-22T09:41:58.000Z</time>
      </trkpt>
      <trkpt lat="43.62167" lon="5.58225">
        <ele>315.20001220703</ele>
        <time>2012-12-22T09:42:06.000Z</time>
      </trkpt>
      <trkpt lat="43.62218" lon="5.58233">
        <ele>311.39999389648</ele>
        <time>2012-12-22T09:42:15.000Z</time>
      </trkpt>
      <trkpt lat="43.62266" lon="5.58242">
        <ele>307.60000610352</ele>
        <time>2012-12-22T09:42:24.000Z</time>
      </trkpt>
      <trkpt lat="43.6231" lon="5.58229">
        <ele>308.60000610352</ele>
        <time>2012-12-22T09:42:32.000Z</time>
      </trkpt>
      <trkpt lat="43.62358" lon="5.58243">
        <ele>305.39999389648</ele>
        <time>2012-12-22T09:42:40.000Z</time>
      </trkpt>
      <trkpt lat="43.62402" lon="5.58264">
        <ele>305.39999389648</ele>
        <time>2012-12-22T09:42:47.000Z</time>
      </trkpt>
      <trkpt lat="43.6244" lon="5.58301">
        <ele>307.20001220703</ele>
        <time>2012-12-22T09:42:55.000Z</time>
      </trkpt>
      <trkpt lat="43.62472" lon="5.58354">
        <ele>305.39999389648</ele>
        <time>2012-12-22T09:43:03.000Z</time>
      </trkpt>
      <trkpt lat="43.62517" lon="5.58386">
        <ele>303.60000610352</ele>
        <time>2012-12-22T09:43:10.000Z</time>
      </trkpt>
      <trkpt lat="43.6255" lon="5.58434">
        <ele>301.60000610352</ele>
        <time>2012-12-22T09:43:17.000Z</time>
      </trkpt>
      <trkpt lat="43.62593" lon="5.5846">
        <ele>300.20001220703</ele>
        <time>2012-12-22T09:43:24.000Z</time>
      </trkpt>
      <trkpt lat="43.62634" lon="5.585">
        <ele>298.60000610352</ele>
        <time>2012-12-22T09:43:31.000Z</time>
      </trkpt>
      <trkpt lat="43.62667" lon="5.5855">
        <ele>295.60000610352</ele>
        <time>2012-12-22T09:43:38.000Z</time>
      </trkpt>
      <trkpt lat="43.62693" lon="5.58607">
        <ele>292.60000610352</ele>
        <time>2012-12-22T09:43:45.000Z</time>
      </trkpt>
      <trkpt lat="43.62733" lon="5.58643">
        <ele>289.79998779297</ele>
        <time>2012-12-22T09:43:51.000Z</time>
      </trkpt>
      <trkpt lat="43.6276" lon="5.58703">
        <ele>285.20001220703</ele>
        <time>2012-12-22T09:43:57.000Z</time>
      </trkpt>
      <trkpt lat="43.62785" lon="5.58764">
        <ele>283.60000610352</ele>
        <time>2012-12-22T09:44:03.000Z</time>
      </trkpt>
      <trkpt lat="43.62832" lon="5.58784">
        <ele>282.60000610352</ele>
        <time>2012-12-22T09:44:09.000Z</time>
      </trkpt>
      <trkpt lat="43.62879" lon="5.58796">
        <ele>280.79998779297</ele>
        <time>2012-12-22T09:44:15.000Z</time>
      </trkpt>
      <trkpt lat="43.62922" lon="5.58818">
        <ele>277.20001220703</ele>
        <time>2012-12-22T09:44:21.000Z</time>
      </trkpt>
      <trkpt lat="43.62968" lon="5.58851">
        <ele>274.39999389648</ele>
        <time>2012-12-22T09:44:28.000Z</time>
      </trkpt>
      <trkpt lat="43.63014" lon="5.58875">
        <ele>271.60000610352</ele>
        <time>2012-12-22T09:44:35.000Z</time>
      </trkpt>
      <trkpt lat="43.63057" lon="5.58872">
        <ele>269.20001220703</ele>
        <time>2012-12-22T09:44:42.000Z</time>
      </trkpt>
      <trkpt lat="43.63085" lon="5.58821">
        <ele>266.60000610352</ele>
        <time>2012-12-22T09:44:49.000Z</time>
      </trkpt>
      <trkpt lat="43.6312" lon="5.58772">
        <ele>266.39999389648</ele>
        <time>2012-12-22T09:44:56.000Z</time>
      </trkpt>
      <trkpt lat="43.63154" lon="5.58726">
        <ele>263.79998779297</ele>
        <time>2012-12-22T09:45:03.000Z</time>
      </trkpt>
      <trkpt lat="43.63201" lon="5.58723">
        <ele>261.39999389648</ele>
        <time>2012-12-22T09:45:10.000Z</time>
      </trkpt>
      <trkpt lat="43.63245" lon="5.58747">
        <ele>259.20001220703</ele>
        <time>2012-12-22T09:45:17.000Z</time>
      </trkpt>
      <trkpt lat="43.63289" lon="5.58768">
        <ele>258.20001220703</ele>
        <time>2012-12-22T09:45:25.000Z</time>
      </trkpt>
      <trkpt lat="43.63334" lon="5.58758">
        <ele>255.39999389648</ele>
        <time>2012-12-22T09:45:35.000Z</time>
      </trkpt>
      <trkpt lat="43.63383" lon="5.58747">
        <ele>253.80000305176</ele>
        <time>2012-12-22T09:45:44.000Z</time>
      </trkpt>
      <trkpt lat="43.6341" lon="5.587">
        <ele>257</ele>
        <time>2012-12-22T09:45:54.000Z</time>
      </trkpt>
      <trkpt lat="43.6338" lon="5.58657">
        <ele>259</ele>
        <time>2012-12-22T09:46:19.000Z</time>
      </trkpt>
      <trkpt lat="43.63335" lon="5.58632">
        <ele>258</ele>
        <time>2012-12-22T09:46:41.000Z</time>
      </trkpt>
      <trkpt lat="43.6332" lon="5.58574">
        <ele>262.20001220703</ele>
        <time>2012-12-22T09:47:00.000Z</time>
      </trkpt>
      <trkpt lat="43.63282" lon="5.58539">
        <ele>265.20001220703</ele>
        <time>2012-12-22T09:47:19.000Z</time>
      </trkpt>
      <trkpt lat="43.63236" lon="5.58552">
        <ele>266.79998779297</ele>
        <time>2012-12-22T09:47:38.000Z</time>
      </trkpt>
      <trkpt lat="43.63209" lon="5.58509">
        <ele>269.60000610352</ele>
        <time>2012-12-22T09:47:56.000Z</time>
      </trkpt>
      <trkpt lat="43.63214" lon="5.58457">
        <ele>272.60000610352</ele>
        <time>2012-12-22T09:48:14.000Z</time>
      </trkpt>
      <trkpt lat="43.63196" lon="5.58413">
        <ele>277.39999389648</ele>
        <time>2012-12-22T09:48:34.000Z</time>
      </trkpt>
      <trkpt lat="43.63191" lon="5.58349">
        <ele>284</ele>
        <time>2012-12-22T09:48:54.000Z</time>
      </trkpt>
      <trkpt lat="43.63182" lon="5.58286">
        <ele>289</ele>
        <time>2012-12-22T09:49:17.000Z</time>
      </trkpt>
      <trkpt lat="43.63136" lon="5.58279">
        <ele>291.39999389648</ele>
        <time>2012-12-22T09:49:37.000Z</time>
      </trkpt>
      <trkpt lat="43.63088" lon="5.58276">
        <ele>294</ele>
        <time>2012-12-22T09:49:57.000Z</time>
      </trkpt>
      <trkpt lat="43.63042" lon="5.5827">
        <ele>296.20001220703</ele>
        <time>2012-12-22T09:50:16.000Z</time>
      </trkpt>
      <trkpt lat="43.62994" lon="5.58264">
        <ele>298.20001220703</ele>
        <time>2012-12-22T09:50:34.000Z</time>
      </trkpt>
      <trkpt lat="43.62949" lon="5.5825">
        <ele>296.60000610352</ele>
        <time>2012-12-22T09:50:48.000Z</time>
      </trkpt>
      <trkpt lat="43.62907" lon="5.58226">
        <ele>297</ele>
        <time>2012-12-22T09:51:01.000Z</time>
      </trkpt>
      <trkpt lat="43.62871" lon="5.5818">
        <ele>298.60000610352</ele>
        <time>2012-12-22T09:51:15.000Z</time>
      </trkpt>
      <trkpt lat="43.62842" lon="5.58129">
        <ele>299</ele>
        <time>2012-12-22T09:51:29.000Z</time>
      </trkpt>
      <trkpt lat="43.62831" lon="5.58072">
        <ele>302</ele>
        <time>2012-12-22T09:51:43.000Z</time>
      </trkpt>
      <trkpt lat="43.62829" lon="5.5801">
        <ele>302.79998779297</ele>
        <time>2012-12-22T09:51:57.000Z</time>
      </trkpt>
      <trkpt lat="43.62839" lon="5.57945">
        <ele>306.79998779297</ele>
        <time>2012-12-22T09:52:10.000Z</time>
      </trkpt>
      <trkpt lat="43.62822" lon="5.57887">
        <ele>307.60000610352</ele>
        <time>2012-12-22T09:52:24.000Z</time>
      </trkpt>
      <trkpt lat="43.62778" lon="5.57884">
        <ele>305</ele>
        <time>2012-12-22T09:52:38.000Z</time>
      </trkpt>
      <trkpt lat="43.6273" lon="5.57877">
        <ele>305</ele>
        <time>2012-12-22T09:52:54.000Z</time>
      </trkpt>
      <trkpt lat="43.6269" lon="5.57866">
        <ele>308.39999389648</ele>
        <time>2012-12-22T09:53:11.000Z</time>
      </trkpt>
      <trkpt lat="43.62655" lon="5.57828">
        <ele>310.79998779297</ele>
        <time>2012-12-22T09:53:27.000Z</time>
      </trkpt>
      <trkpt lat="43.62613" lon="5.578">
        <ele>315.39999389648</ele>
        <time>2012-12-22T09:53:43.000Z</time>
      </trkpt>
      <trkpt lat="43.62568" lon="5.57796">
        <ele>318</ele>
        <time>2012-12-22T09:53:59.000Z</time>
      </trkpt>
      <trkpt lat="43.62521" lon="5.57821">
        <ele>318.39999389648</ele>
        <time>2012-12-22T09:54:16.000Z</time>
      </trkpt>
      <trkpt lat="43.62476" lon="5.57821">
        <ele>320.79998779297</ele>
        <time>2012-12-22T09:54:31.000Z</time>
      </trkpt>
      <trkpt lat="43.62434" lon="5.5781">
        <ele>324.20001220703</ele>
        <time>2012-12-22T09:54:48.000Z</time>
      </trkpt>
      <trkpt lat="43.62401" lon="5.57772">
        <ele>329.20001220703</ele>
        <time>2012-12-22T09:55:16.000Z</time>
      </trkpt>
      <trkpt lat="43.62359" lon="5.57764">
        <ele>334.20001220703</ele>
        <time>2012-12-22T09:59:29.000Z</time>
      </trkpt>
      <trkpt lat="43.62313" lon="5.57758">
        <ele>339</ele>
        <time>2012-12-22T09:59:51.000Z</time>
      </trkpt>
      <trkpt lat="43.62267" lon="5.57761">
        <ele>342.39999389648</ele>
        <time>2012-12-22T10:00:13.000Z</time>
      </trkpt>
      <trkpt lat="43.62273" lon="5.57705">
        <ele>346.79998779297</ele>
        <time>2012-12-22T10:00:35.000Z</time>
      </trkpt>
      <trkpt lat="43.62291" lon="5.57646">
        <ele>347.60000610352</ele>
        <time>2012-12-22T10:00:54.000Z</time>
      </trkpt>
      <trkpt lat="43.62253" lon="5.57641">
        <ele>353</ele>
        <time>2012-12-22T10:01:14.000Z</time>
      </trkpt>
      <trkpt lat="43.62227" lon="5.57603">
        <ele>358</ele>
        <time>2012-12-22T10:01:35.000Z</time>
      </trkpt>
      <trkpt lat="43.6219" lon="5.57629">
        <ele>361.20001220703</ele>
        <time>2012-12-22T10:01:55.000Z</time>
      </trkpt>
      <trkpt lat="43.62146" lon="5.57618">
        <ele>368</ele>
        <time>2012-12-22T10:02:15.000Z</time>
      </trkpt>
      <trkpt lat="43.62106" lon="5.57623">
        <ele>372.39999389648</ele>
        <time>2012-12-22T10:02:35.000Z</time>
      </trkpt>
      <trkpt lat="43.62089" lon="5.57671">
        <ele>368.60000610352</ele>
        <time>2012-12-22T10:02:54.000Z</time>
      </trkpt>
      <trkpt lat="43.62087" lon="5.5761">
        <ele>376.20001220703</ele>
        <time>2012-12-22T10:03:13.000Z</time>
      </trkpt>
      <trkpt lat="43.62112" lon="5.57575">
        <ele>377</ele>
        <time>2012-12-22T10:03:27.000Z</time>
      </trkpt>
      <trkpt lat="43.62154" lon="5.57559">
        <ele>372</ele>
        <time>2012-12-22T10:03:42.000Z</time>
      </trkpt>
      <trkpt lat="43.62128" lon="5.57522">
        <ele>377.39999389648</ele>
        <time>2012-12-22T10:04:02.000Z</time>
      </trkpt>
      <trkpt lat="43.62083" lon="5.57511">
        <ele>386</ele>
        <time>2012-12-22T10:04:23.000Z</time>
      </trkpt>
      <trkpt lat="43.62039" lon="5.57489">
        <ele>392.20001220703</ele>
        <time>2012-12-22T10:04:44.000Z</time>
      </trkpt>
      <trkpt lat="43.62009" lon="5.57442">
        <ele>394.39999389648</ele>
        <time>2012-12-22T10:05:05.000Z</time>
      </trkpt>
      <trkpt lat="43.61975" lon="5.57402">
        <ele>399</ele>
        <time>2012-12-22T10:05:25.000Z</time>
      </trkpt>
      <trkpt lat="43.61951" lon="5.57345">
        <ele>404</ele>
        <time>2012-12-22T10:05:45.000Z</time>
      </trkpt>
      <trkpt lat="43.61928" lon="5.57292">
        <ele>410.60000610352</ele>
        <time>2012-12-22T10:06:06.000Z</time>
      </trkpt>
      <trkpt lat="43.61884" lon="5.57277">
        <ele>417</ele>
        <time>2012-12-22T10:06:30.000Z</time>
      </trkpt>
      <trkpt lat="43.61844" lon="5.5725">
        <ele>422.79998779297</ele>
        <time>2012-12-22T10:06:56.000Z</time>
      </trkpt>
      <trkpt lat="43.61804" lon="5.57222">
        <ele>426.20001220703</ele>
        <time>2012-12-22T10:07:21.000Z</time>
      </trkpt>
      <trkpt lat="43.61758" lon="5.57215">
        <ele>429.39999389648</ele>
        <time>2012-12-22T10:07:39.000Z</time>
      </trkpt>
      <trkpt lat="43.61728" lon="5.5717">
        <ele>432.39999389648</ele>
        <time>2012-12-22T10:07:54.000Z</time>
      </trkpt>
      <trkpt lat="43.61715" lon="5.57109">
        <ele>432.60000610352</ele>
        <time>2012-12-22T10:08:10.000Z</time>
      </trkpt>
      <trkpt lat="43.61683" lon="5.57065">
        <ele>436</ele>
        <time>2012-12-22T10:08:26.000Z</time>
      </trkpt>
      <trkpt lat="43.61646" lon="5.57024">
        <ele>436.79998779297</ele>
        <time>2012-12-22T10:08:43.000Z</time>
      </trkpt>
      <trkpt lat="43.61602" lon="5.57006">
        <ele>438.79998779297</ele>
        <time>2012-12-22T10:09:01.000Z</time>
      </trkpt>
      <trkpt lat="43.61566" lon="5.56992">
        <ele>440.79998779297</ele>
        <time>2012-12-22T10:13:11.000Z</time>
      </trkpt>
      <trkpt lat="43.61517" lon="5.56991">
        <ele>443.20001220703</ele>
        <time>2012-12-22T10:13:38.000Z</time>
      </trkpt>
      <trkpt lat="43.6147" lon="5.56988">
        <ele>444.60000610352</ele>
        <time>2012-12-22T10:14:04.000Z</time>
      </trkpt>
      <trkpt lat="43.61424" lon="5.56982">
        <ele>445.79998779297</ele>
        <time>2012-12-22T10:14:23.000Z</time>
      </trkpt>
      <trkpt lat="43.61378" lon="5.56982">
        <ele>447</ele>
        <time>2012-12-22T10:14:41.000Z</time>
      </trkpt>
      <trkpt lat="43.61334" lon="5.56963">
        <ele>450.20001220703</ele>
        <time>2012-12-22T10:14:59.000Z</time>
      </trkpt>
      <trkpt lat="43.61289" lon="5.56983">
        <ele>445.60000610352</ele>
        <time>2012-12-22T10:15:17.000Z</time>
      </trkpt>
      <trkpt lat="43.61244" lon="5.56968">
        <ele>444.39999389648</ele>
        <time>2012-12-22T10:15:32.000Z</time>
      </trkpt>
      <trkpt lat="43.61204" lon="5.56936">
        <ele>444.39999389648</ele>
        <time>2012-12-22T10:15:44.000Z</time>
      </trkpt>
      <trkpt lat="43.6116" lon="5.56945">
        <ele>443.79998779297</ele>
        <time>2012-12-22T10:15:57.000Z</time>
      </trkpt>
      <trkpt lat="43.61125" lon="5.56987">
        <ele>448.39999389648</ele>
        <time>2012-12-22T10:16:12.000Z</time>
      </trkpt>
      <trkpt lat="43.61103" lon="5.57043">
        <ele>448.60000610352</ele>
        <time>2012-12-22T10:16:27.000Z</time>
      </trkpt>
      <trkpt lat="43.61061" lon="5.5704">
        <ele>449.60000610352</ele>
        <time>2012-12-22T10:16:42.000Z</time>
      </trkpt>
      <trkpt lat="43.61021" lon="5.57005">
        <ele>448.39999389648</ele>
        <time>2012-12-22T10:16:55.000Z</time>
      </trkpt>
      <trkpt lat="43.60973" lon="5.57013">
        <ele>447.20001220703</ele>
        <time>2012-12-22T10:17:06.000Z</time>
      </trkpt>
      <trkpt lat="43.6093" lon="5.56993">
        <ele>449.39999389648</ele>
        <time>2012-12-22T10:17:19.000Z</time>
      </trkpt>
      <trkpt lat="43.60891" lon="5.56961">
        <ele>452.79998779297</ele>
        <time>2012-12-22T10:17:35.000Z</time>
      </trkpt>
      <trkpt lat="43.60851" lon="5.56929">
        <ele>459.79998779297</ele>
        <time>2012-12-22T10:17:56.000Z</time>
      </trkpt>
      <trkpt lat="43.60811" lon="5.56901">
        <ele>463.39999389648</ele>
        <time>2012-12-22T10:18:18.000Z</time>
      </trkpt>
      <trkpt lat="43.60771" lon="5.56874">
        <ele>464.79998779297</ele>
        <time>2012-12-22T10:18:40.000Z</time>
      </trkpt>
      <trkpt lat="43.60726" lon="5.56874">
        <ele>467.79998779297</ele>
        <time>2012-12-22T10:18:59.000Z</time>
      </trkpt>
      <trkpt lat="43.6068" lon="5.56889">
        <ele>472</ele>
        <time>2012-12-22T10:19:20.000Z</time>
      </trkpt>
      <trkpt lat="43.60651" lon="5.56938">
        <ele>478.79998779297</ele>
        <time>2012-12-22T10:19:37.000Z</time>
      </trkpt>
      <trkpt lat="43.60617" lon="5.56978">
        <ele>483.20001220703</ele>
        <time>2012-12-22T10:19:52.000Z</time>
      </trkpt>
      <trkpt lat="43.60582" lon="5.57021">
        <ele>488.39999389648</ele>
        <time>2012-12-22T10:20:06.000Z</time>
      </trkpt>
      <trkpt lat="43.60545" lon="5.57058">
        <ele>489.39999389648</ele>
        <time>2012-12-22T10:20:20.000Z</time>
      </trkpt>
      <trkpt lat="43.60505" lon="5.57085">
        <ele>493.20001220703</ele>
        <time>2012-12-22T10:20:34.000Z</time>
      </trkpt>
      <trkpt lat="43.60461" lon="5.57111">
        <ele>491.39999389648</ele>
        <time>2012-12-22T10:20:48.000Z</time>
      </trkpt>
      <trkpt lat="43.60419" lon="5.57131">
        <ele>491.20001220703</ele>
        <time>2012-12-22T10:21:00.000Z</time>
      </trkpt>
      <trkpt lat="43.60372" lon="5.5715">
        <ele>489.79998779297</ele>
        <time>2012-12-22T10:21:11.000Z</time>
      </trkpt>
      <trkpt lat="43.60329" lon="5.5717">
        <ele>490.79998779297</ele>
        <time>2012-12-22T10:21:21.000Z</time>
      </trkpt>
      <trkpt lat="43.60283" lon="5.57191">
        <ele>492</ele>
        <time>2012-12-22T10:21:34.000Z</time>
      </trkpt>
      <trkpt lat="43.6024" lon="5.57212">
        <ele>495.79998779297</ele>
        <time>2012-12-22T10:21:49.000Z</time>
      </trkpt>
      <trkpt lat="43.60195" lon="5.5723">
        <ele>501.79998779297</ele>
        <time>2012-12-22T10:22:06.000Z</time>
      </trkpt>
      <trkpt lat="43.6015" lon="5.57247">
        <ele>506.20001220703</ele>
        <time>2012-12-22T10:22:23.000Z</time>
      </trkpt>
      <trkpt lat="43.60113" lon="5.57218">
        <ele>507.60000610352</ele>
        <time>2012-12-22T10:22:39.000Z</time>
      </trkpt>
      <trkpt lat="43.60082" lon="5.57172">
        <ele>510.79998779297</ele>
        <time>2012-12-22T10:22:56.000Z</time>
      </trkpt>
      <trkpt lat="43.60037" lon="5.5716">
        <ele>512.20001220703</ele>
        <time>2012-12-22T10:23:16.000Z</time>
      </trkpt>
      <trkpt lat="43.59997" lon="5.57137">
        <ele>513.20001220703</ele>
        <time>2012-12-22T10:23:42.000Z</time>
      </trkpt>
      <trkpt lat="43.5997" lon="5.57093">
        <ele>518.20001220703</ele>
        <time>2012-12-22T10:30:14.000Z</time>
      </trkpt>
      <trkpt lat="43.59962" lon="5.57032">
        <ele>524.40002441406</ele>
        <time>2012-12-22T10:30:34.000Z</time>
      </trkpt>
      <trkpt lat="43.59985" lon="5.56977">
        <ele>524.40002441406</ele>
        <time>2012-12-22T10:30:52.000Z</time>
      </trkpt>
      <trkpt lat="43.60013" lon="5.56927">
        <ele>526.20001220703</ele>
        <time>2012-12-22T10:31:09.000Z</time>
      </trkpt>
      <trkpt lat="43.60047" lon="5.56882">
        <ele>524.40002441406</ele>
        <time>2012-12-22T10:31:26.000Z</time>
      </trkpt>
      <trkpt lat="43.60076" lon="5.56832">
        <ele>526.79998779297</ele>
        <time>2012-12-22T10:31:43.000Z</time>
      </trkpt>
      <trkpt lat="43.60099" lon="5.56777">
        <ele>526.20001220703</ele>
        <time>2012-12-22T10:32:01.000Z</time>
      </trkpt>
      <trkpt lat="43.60118" lon="5.56719">
        <ele>525.20001220703</ele>
        <time>2012-12-22T10:32:17.000Z</time>
      </trkpt>
      <trkpt lat="43.60097" lon="5.56688">
        <ele>526.59997558594</ele>
        <time>2012-12-22T10:32:33.000Z</time>
      </trkpt>
      <trkpt lat="43.60066" lon="5.56732">
        <ele>530</ele>
        <time>2012-12-22T10:32:50.000Z</time>
      </trkpt>
      <trkpt lat="43.60031" lon="5.56773">
        <ele>532.40002441406</ele>
        <time>2012-12-22T10:33:07.000Z</time>
      </trkpt>
      <trkpt lat="43.59991" lon="5.56789">
        <ele>535.59997558594</ele>
        <time>2012-12-22T10:33:23.000Z</time>
      </trkpt>
      <trkpt lat="43.59956" lon="5.56749">
        <ele>536.40002441406</ele>
        <time>2012-12-22T10:33:39.000Z</time>
      </trkpt>
      <trkpt lat="43.59924" lon="5.56705">
        <ele>537.20001220703</ele>
        <time>2012-12-22T10:33:54.000Z</time>
      </trkpt>
      <trkpt lat="43.59924" lon="5.5664">
        <ele>535.59997558594</ele>
        <time>2012-12-22T10:34:07.000Z</time>
      </trkpt>
      <trkpt lat="43.59935" lon="5.56581">
        <ele>532.79998779297</ele>
        <time>2012-12-22T10:34:19.000Z</time>
      </trkpt>
      <trkpt lat="43.59935" lon="5.56518">
        <ele>534</ele>
        <time>2012-12-22T10:34:32.000Z</time>
      </trkpt>
      <trkpt lat="43.59954" lon="5.56463">
        <ele>532.40002441406</ele>
        <time>2012-12-22T10:34:45.000Z</time>
      </trkpt>
      <trkpt lat="43.59956" lon="5.56399">
        <ele>533</ele>
        <time>2012-12-22T10:34:59.000Z</time>
      </trkpt>
      <trkpt lat="43.59957" lon="5.56335">
        <ele>533</ele>
        <time>2012-12-22T10:35:15.000Z</time>
      </trkpt>
      <trkpt lat="43.5996" lon="5.56272">
        <ele>532</ele>
        <time>2012-12-22T10:35:27.000Z</time>
      </trkpt>
      <trkpt lat="43.59998" lon="5.56238">
        <ele>528.79998779297</ele>
        <time>2012-12-22T10:35:37.000Z</time>
      </trkpt>
      <trkpt lat="43.60031" lon="5.56195">
        <ele>524.20001220703</ele>
        <time>2012-12-22T10:35:43.000Z</time>
      </trkpt>
      <trkpt lat="43.60065" lon="5.5615">
        <ele>518.40002441406</ele>
        <time>2012-12-22T10:35:49.000Z</time>
      </trkpt>
      <trkpt lat="43.60104" lon="5.56108">
        <ele>512.79998779297</ele>
        <time>2012-12-22T10:35:55.000Z</time>
      </trkpt>
      <trkpt lat="43.60136" lon="5.56065">
        <ele>508.20001220703</ele>
        <time>2012-12-22T10:36:02.000Z</time>
      </trkpt>
      <trkpt lat="43.60171" lon="5.56024">
        <ele>503.60000610352</ele>
        <time>2012-12-22T10:36:10.000Z</time>
      </trkpt>
      <trkpt lat="43.60206" lon="5.55984">
        <ele>496.79998779297</ele>
        <time>2012-12-22T10:36:17.000Z</time>
      </trkpt>
      <trkpt lat="43.60251" lon="5.55951">
        <ele>489.60000610352</ele>
        <time>2012-12-22T10:36:24.000Z</time>
      </trkpt>
      <trkpt lat="43.60289" lon="5.55912">
        <ele>491.79998779297</ele>
        <time>2012-12-22T10:36:32.000Z</time>
      </trkpt>
      <trkpt lat="43.60328" lon="5.55881">
        <ele>494.60000610352</ele>
        <time>2012-12-22T10:36:56.000Z</time>
      </trkpt>
      <trkpt lat="43.60311" lon="5.55829">
        <ele>489.20001220703</ele>
        <time>2012-12-22T10:39:13.000Z</time>
      </trkpt>
      <trkpt lat="43.60301" lon="5.55762">
        <ele>479.39999389648</ele>
        <time>2012-12-22T10:39:25.000Z</time>
      </trkpt>
      <trkpt lat="43.60287" lon="5.55699">
        <ele>473.79998779297</ele>
        <time>2012-12-22T10:39:32.000Z</time>
      </trkpt>
      <trkpt lat="43.60279" lon="5.55631">
        <ele>471.39999389648</ele>
        <time>2012-12-22T10:39:40.000Z</time>
      </trkpt>
      <trkpt lat="43.60292" lon="5.55567">
        <ele>468.60000610352</ele>
        <time>2012-12-22T10:39:49.000Z</time>
      </trkpt>
      <trkpt lat="43.60323" lon="5.55512">
        <ele>467.60000610352</ele>
        <time>2012-12-22T10:40:05.000Z</time>
      </trkpt>
      <trkpt lat="43.60331" lon="5.55448">
        <ele>465.79998779297</ele>
        <time>2012-12-22T10:40:16.000Z</time>
      </trkpt>
      <trkpt lat="43.60351" lon="5.55389">
        <ele>466</ele>
        <time>2012-12-22T10:40:27.000Z</time>
      </trkpt>
      <trkpt lat="43.60375" lon="5.55331">
        <ele>471.60000610352</ele>
        <time>2012-12-22T10:40:51.000Z</time>
      </trkpt>
      <trkpt lat="43.6042" lon="5.55316">
        <ele>477.79998779297</ele>
        <time>2012-12-22T10:41:22.000Z</time>
      </trkpt>
      <trkpt lat="43.6046" lon="5.55271">
        <ele>482.39999389648</ele>
        <time>2012-12-22T10:41:52.000Z</time>
      </trkpt>
      <trkpt lat="43.60497" lon="5.55233">
        <ele>483.60000610352</ele>
        <time>2012-12-22T10:42:19.000Z</time>
      </trkpt>
      <trkpt lat="43.60543" lon="5.55221">
        <ele>489</ele>
        <time>2012-12-22T10:42:47.000Z</time>
      </trkpt>
      <trkpt lat="43.60586" lon="5.55211">
        <ele>494.60000610352</ele>
        <time>2012-12-22T10:44:59.000Z</time>
      </trkpt>
      <trkpt lat="43.60632" lon="5.55208">
        <ele>496.79998779297</ele>
        <time>2012-12-22T10:47:28.000Z</time>
      </trkpt>
      <trkpt lat="43.60679" lon="5.55202">
        <ele>498.20001220703</ele>
        <time>2012-12-22T10:47:51.000Z</time>
      </trkpt>
      <trkpt lat="43.60718" lon="5.55167">
        <ele>499.39999389648</ele>
        <time>2012-12-22T10:48:16.000Z</time>
      </trkpt>
      <trkpt lat="43.60756" lon="5.5513">
        <ele>497.60000610352</ele>
        <time>2012-12-22T10:48:29.000Z</time>
      </trkpt>
      <trkpt lat="43.60794" lon="5.55101">
        <ele>493.39999389648</ele>
        <time>2012-12-22T10:48:48.000Z</time>
      </trkpt>
      <trkpt lat="43.6079" lon="5.55049">
        <ele>494.79998779297</ele>
        <time>2012-12-22T10:49:18.000Z</time>
      </trkpt>
      <trkpt lat="43.60822" lon="5.54999">
        <ele>489.20001220703</ele>
        <time>2012-12-22T10:49:28.000Z</time>
      </trkpt>
      <trkpt lat="43.60849" lon="5.54946">
        <ele>479.79998779297</ele>
        <time>2012-12-22T10:49:35.000Z</time>
      </trkpt>
      <trkpt lat="43.60864" lon="5.54878">
        <ele>472.79998779297</ele>
        <time>2012-12-22T10:49:43.000Z</time>
      </trkpt>
      <trkpt lat="43.60883" lon="5.54816">
        <ele>466.20001220703</ele>
        <time>2012-12-22T10:49:52.000Z</time>
      </trkpt>
      <trkpt lat="43.60898" lon="5.54759">
        <ele>459.39999389648</ele>
        <time>2012-12-22T10:50:00.000Z</time>
      </trkpt>
      <trkpt lat="43.60907" lon="5.54695">
        <ele>452.20001220703</ele>
        <time>2012-12-22T10:50:07.000Z</time>
      </trkpt>
      <trkpt lat="43.60928" lon="5.54638">
        <ele>446.20001220703</ele>
        <time>2012-12-22T10:50:16.000Z</time>
      </trkpt>
      <trkpt lat="43.60932" lon="5.54576">
        <ele>440</ele>
        <time>2012-12-22T10:50:23.000Z</time>
      </trkpt>
      <trkpt lat="43.60933" lon="5.54507">
        <ele>430</ele>
        <time>2012-12-22T10:50:31.000Z</time>
      </trkpt>
      <trkpt lat="43.60905" lon="5.54462">
        <ele>428</ele>
        <time>2012-12-22T10:50:41.000Z</time>
      </trkpt>
      <trkpt lat="43.60879" lon="5.54413">
        <ele>432</ele>
        <time>2012-12-22T10:50:57.000Z</time>
      </trkpt>
      <trkpt lat="43.60904" lon="5.54351">
        <ele>430.20001220703</ele>
        <time>2012-12-22T10:51:22.000Z</time>
      </trkpt>
      <trkpt lat="43.60892" lon="5.54292">
        <ele>433</ele>
        <time>2012-12-22T10:51:53.000Z</time>
      </trkpt>
      <trkpt lat="43.60892" lon="5.54226">
        <ele>429</ele>
        <time>2012-12-22T10:52:07.000Z</time>
      </trkpt>
      <trkpt lat="43.60862" lon="5.54177">
        <ele>424.79998779297</ele>
        <time>2012-12-22T10:52:20.000Z</time>
      </trkpt>
      <trkpt lat="43.60816" lon="5.54161">
        <ele>427.39999389648</ele>
        <time>2012-12-22T10:52:31.000Z</time>
      </trkpt>
      <trkpt lat="43.60795" lon="5.54116">
        <ele>430.20001220703</ele>
        <time>2012-12-22T10:52:45.000Z</time>
      </trkpt>
      <trkpt lat="43.60812" lon="5.54056">
        <ele>421.20001220703</ele>
        <time>2012-12-22T10:52:56.000Z</time>
      </trkpt>
      <trkpt lat="43.60797" lon="5.53995">
        <ele>418.20001220703</ele>
        <time>2012-12-22T10:53:06.000Z</time>
      </trkpt>
      <trkpt lat="43.60768" lon="5.53942">
        <ele>412.79998779297</ele>
        <time>2012-12-22T10:53:14.000Z</time>
      </trkpt>
      <trkpt lat="43.60727" lon="5.53915">
        <ele>411</ele>
        <time>2012-12-22T10:53:22.000Z</time>
      </trkpt>
      <trkpt lat="43.60728" lon="5.53853">
        <ele>407.20001220703</ele>
        <time>2012-12-22T10:53:33.000Z</time>
      </trkpt>
      <trkpt lat="43.60739" lon="5.53833">
        <ele>406</ele>
        <time>2012-12-22T10:56:36.000Z</time>
      </trkpt>
      <trkpt lat="43.60692" lon="5.53837">
        <ele>407</ele>
        <time>2012-12-22T10:56:56.000Z</time>
      </trkpt>
      <trkpt lat="43.60644" lon="5.53841">
        <ele>410.20001220703</ele>
        <time>2012-12-22T10:57:12.000Z</time>
      </trkpt>
      <trkpt lat="43.60617" lon="5.53803">
        <ele>408</ele>
        <time>2012-12-22T10:57:30.000Z</time>
      </trkpt>
      <trkpt lat="43.60592" lon="5.53752">
        <ele>403.20001220703</ele>
        <time>2012-12-22T10:57:45.000Z</time>
      </trkpt>
      <trkpt lat="43.60601" lon="5.53701">
        <ele>395.39999389648</ele>
        <time>2012-12-22T10:57:59.000Z</time>
      </trkpt>
      <trkpt lat="43.60625" lon="5.53655">
        <ele>386</ele>
        <time>2012-12-22T10:58:13.000Z</time>
      </trkpt>
      <trkpt lat="43.60651" lon="5.53608">
        <ele>374.79998779297</ele>
        <time>2012-12-22T10:58:26.000Z</time>
      </trkpt>
      <trkpt lat="43.60621" lon="5.5356">
        <ele>373</ele>
        <time>2012-12-22T11:00:16.000Z</time>
      </trkpt>
      <trkpt lat="43.60587" lon="5.53536">
        <ele>376.60000610352</ele>
        <time>2012-12-22T11:00:32.000Z</time>
      </trkpt>
      <trkpt lat="43.60624" lon="5.53501">
        <ele>369.20001220703</ele>
        <time>2012-12-22T11:00:44.000Z</time>
      </trkpt>
      <trkpt lat="43.60664" lon="5.53466">
        <ele>365</ele>
        <time>2012-12-22T11:00:54.000Z</time>
      </trkpt>
      <trkpt lat="43.60705" lon="5.53428">
        <ele>359.60000610352</ele>
        <time>2012-12-22T11:01:03.000Z</time>
      </trkpt>
      <trkpt lat="43.60744" lon="5.53386">
        <ele>353.39999389648</ele>
        <time>2012-12-22T11:01:12.000Z</time>
      </trkpt>
      <trkpt lat="43.60777" lon="5.53334">
        <ele>350.79998779297</ele>
        <time>2012-12-22T11:01:23.000Z</time>
      </trkpt>
      <trkpt lat="43.60801" lon="5.53275">
        <ele>346.60000610352</ele>
        <time>2012-12-22T11:01:31.000Z</time>
      </trkpt>
      <trkpt lat="43.60803" lon="5.53205">
        <ele>344.39999389648</ele>
        <time>2012-12-22T11:01:40.000Z</time>
      </trkpt>
      <trkpt lat="43.60812" lon="5.53138">
        <ele>341.60000610352</ele>
        <time>2012-12-22T11:01:50.000Z</time>
      </trkpt>
      <trkpt lat="43.60814" lon="5.5307">
        <ele>341</ele>
        <time>2012-12-22T11:02:24.000Z</time>
      </trkpt>
      <trkpt lat="43.60798" lon="5.53007">
        <ele>343.79998779297</ele>
        <time>2012-12-22T11:02:35.000Z</time>
      </trkpt>
      <trkpt lat="43.60812" lon="5.52941">
        <ele>335.79998779297</ele>
        <time>2012-12-22T11:02:45.000Z</time>
      </trkpt>
      <trkpt lat="43.6079" lon="5.5288">
        <ele>337.79998779297</ele>
        <time>2012-12-22T11:02:53.000Z</time>
      </trkpt>
      <trkpt lat="43.60791" lon="5.52822">
        <ele>334</ele>
        <time>2012-12-22T11:03:01.000Z</time>
      </trkpt>
      <trkpt lat="43.60794" lon="5.52753">
        <ele>330.39999389648</ele>
        <time>2012-12-22T11:03:09.000Z</time>
      </trkpt>
      <trkpt lat="43.60777" lon="5.52691">
        <ele>328.60000610352</ele>
        <time>2012-12-22T11:03:16.000Z</time>
      </trkpt>
      <trkpt lat="43.60774" lon="5.5262">
        <ele>323</ele>
        <time>2012-12-22T11:03:24.000Z</time>
      </trkpt>
      <trkpt lat="43.60755" lon="5.52555">
        <ele>320.79998779297</ele>
        <time>2012-12-22T11:03:31.000Z</time>
      </trkpt>
      <trkpt lat="43.60722" lon="5.52505">
        <ele>315.60000610352</ele>
        <time>2012-12-22T11:03:38.000Z</time>
      </trkpt>
      <trkpt lat="43.60703" lon="5.52459">
        <ele>311.39999389648</ele>
        <time>2012-12-22T11:04:34.000Z</time>
      </trkpt>
      <trkpt lat="43.60705" lon="5.52393">
        <ele>307</ele>
        <time>2012-12-22T11:04:51.000Z</time>
      </trkpt>
      <trkpt lat="43.607" lon="5.52329">
        <ele>303.39999389648</ele>
        <time>2012-12-22T11:05:02.000Z</time>
      </trkpt>
      <trkpt lat="43.60706" lon="5.52262">
        <ele>298.79998779297</ele>
        <time>2012-12-22T11:05:13.000Z</time>
      </trkpt>
      <trkpt lat="43.60712" lon="5.52197">
        <ele>295</ele>
        <time>2012-12-22T11:05:19.000Z</time>
      </trkpt>
      <trkpt lat="43.60725" lon="5.52137">
        <ele>291.60000610352</ele>
        <time>2012-12-22T11:05:25.000Z</time>
      </trkpt>
      <trkpt lat="43.60747" lon="5.52081">
        <ele>288.79998779297</ele>
        <time>2012-12-22T11:05:33.000Z</time>
      </trkpt>
      <trkpt lat="43.60727" lon="5.52045">
        <ele>286.39999389648</ele>
        <time>2012-12-22T11:05:43.000Z</time>
      </trkpt>
      <trkpt lat="43.60705" lon="5.5202">
        <ele>285.20001220703</ele>
        <time>2012-12-22T11:05:56.000Z</time>
      </trkpt>
      <trkpt lat="43.60728" lon="5.51981">
        <ele>284.20001220703</ele>
        <time>2012-12-22T11:06:18.000Z</time>
      </trkpt>
      <trkpt lat="43.60703" lon="5.5193">
        <ele>285.79998779297</ele>
        <time>2012-12-22T11:06:35.000Z</time>
      </trkpt>
      <trkpt lat="43.60665" lon="5.5189">
        <ele>288</ele>
        <time>2012-12-22T11:06:56.000Z</time>
      </trkpt>
      <trkpt lat="43.60626" lon="5.51853">
        <ele>290.20001220703</ele>
        <time>2012-12-22T11:07:14.000Z</time>
      </trkpt>
      <trkpt lat="43.60587" lon="5.51814">
        <ele>291.39999389648</ele>
        <time>2012-12-22T11:07:32.000Z</time>
      </trkpt>
      <trkpt lat="43.60547" lon="5.51774">
        <ele>292.60000610352</ele>
        <time>2012-12-22T11:07:47.000Z</time>
      </trkpt>
      <trkpt lat="43.60511" lon="5.51733">
        <ele>292.20001220703</ele>
        <time>2012-12-22T11:07:59.000Z</time>
      </trkpt>
      <trkpt lat="43.60474" lon="5.51692">
        <ele>292.39999389648</ele>
        <time>2012-12-22T11:08:17.000Z</time>
      </trkpt>
      <trkpt lat="43.60432" lon="5.51662">
        <ele>290.60000610352</ele>
        <time>2012-12-22T11:08:38.000Z</time>
      </trkpt>
      <trkpt lat="43.60391" lon="5.51633">
        <ele>292</ele>
        <time>2012-12-22T11:08:56.000Z</time>
      </trkpt>
      <trkpt lat="43.60348" lon="5.51611">
        <ele>292.60000610352</ele>
        <time>2012-12-22T11:09:11.000Z</time>
      </trkpt>
      <trkpt lat="43.60303" lon="5.51602">
        <ele>292.39999389648</ele>
        <time>2012-12-22T11:09:27.000Z</time>
      </trkpt>
      <trkpt lat="43.60259" lon="5.51627">
        <ele>292.79998779297</ele>
        <time>2012-12-22T11:09:43.000Z</time>
      </trkpt>
      <trkpt lat="43.60213" lon="5.51631">
        <ele>292.79998779297</ele>
        <time>2012-12-22T11:09:58.000Z</time>
      </trkpt>
      <trkpt lat="43.60167" lon="5.5165">
        <ele>292</ele>
        <time>2012-12-22T11:10:14.000Z</time>
      </trkpt>
      <trkpt lat="43.60122" lon="5.51678">
        <ele>292.20001220703</ele>
        <time>2012-12-22T11:10:27.000Z</time>
      </trkpt>
      <trkpt lat="43.60078" lon="5.51703">
        <ele>292.60000610352</ele>
        <time>2012-12-22T11:10:39.000Z</time>
      </trkpt>
      <trkpt lat="43.60034" lon="5.51714">
        <ele>294.39999389648</ele>
        <time>2012-12-22T11:10:51.000Z</time>
      </trkpt>
      <trkpt lat="43.59991" lon="5.51741">
        <ele>294.60000610352</ele>
        <time>2012-12-22T11:11:04.000Z</time>
      </trkpt>
      <trkpt lat="43.59962" lon="5.51794">
        <ele>295</ele>
        <time>2012-12-22T11:11:17.000Z</time>
      </trkpt>
      <trkpt lat="43.59926" lon="5.51833">
        <ele>294.20001220703</ele>
        <time>2012-12-22T11:11:29.000Z</time>
      </trkpt>
      <trkpt lat="43.59879" lon="5.51852">
        <ele>296</ele>
        <time>2012-12-22T11:11:42.000Z</time>
      </trkpt>
      <trkpt lat="43.59831" lon="5.51859">
        <ele>298</ele>
        <time>2012-12-22T11:11:58.000Z</time>
      </trkpt>
      <trkpt lat="43.59783" lon="5.51862">
        <ele>300.20001220703</ele>
        <time>2012-12-22T11:12:11.000Z</time>
      </trkpt>
      <trkpt lat="43.59737" lon="5.51871">
        <ele>302.20001220703</ele>
        <time>2012-12-22T11:12:23.000Z</time>
      </trkpt>
      <trkpt lat="43.59693" lon="5.51858">
        <ele>303.39999389648</ele>
        <time>2012-12-22T11:12:36.000Z</time>
      </trkpt>
      <trkpt lat="43.59648" lon="5.51838">
        <ele>304.79998779297</ele>
        <time>2012-12-22T11:12:54.000Z</time>
      </trkpt>
      <trkpt lat="43.59607" lon="5.51805">
        <ele>308</ele>
        <time>2012-12-22T11:13:23.000Z</time>
      </trkpt>
      <trkpt lat="43.5957" lon="5.5177">
        <ele>309</ele>
        <time>2012-12-22T11:13:41.000Z</time>
      </trkpt>
      <trkpt lat="43.59529" lon="5.51739">
        <ele>309.60000610352</ele>
        <time>2012-12-22T11:13:56.000Z</time>
      </trkpt>
      <trkpt lat="43.59485" lon="5.51711">
        <ele>309.79998779297</ele>
        <time>2012-12-22T11:14:11.000Z</time>
      </trkpt>
      <trkpt lat="43.59447" lon="5.51676">
        <ele>311</ele>
        <time>2012-12-22T11:14:25.000Z</time>
      </trkpt>
      <trkpt lat="43.594" lon="5.51658">
        <ele>315.20001220703</ele>
        <time>2012-12-22T11:14:39.000Z</time>
      </trkpt>
      <trkpt lat="43.59359" lon="5.51623">
        <ele>318.60000610352</ele>
        <time>2012-12-22T11:14:54.000Z</time>
      </trkpt>
      <trkpt lat="43.59318" lon="5.51594">
        <ele>317.60000610352</ele>
        <time>2012-12-22T11:15:09.000Z</time>
      </trkpt>
      <trkpt lat="43.59277" lon="5.51566">
        <ele>319</ele>
        <time>2012-12-22T11:15:24.000Z</time>
      </trkpt>
      <trkpt lat="43.59242" lon="5.51519">
        <ele>318.39999389648</ele>
        <time>2012-12-22T11:15:38.000Z</time>
      </trkpt>
      <trkpt lat="43.59236" lon="5.51454">
        <ele>317.39999389648</ele>
        <time>2012-12-22T11:15:48.000Z</time>
      </trkpt>
      <trkpt lat="43.59242" lon="5.51388">
        <ele>316.39999389648</ele>
        <time>2012-12-22T11:16:00.000Z</time>
      </trkpt>
      <trkpt lat="43.59229" lon="5.51327">
        <ele>317.60000610352</ele>
        <time>2012-12-22T11:16:15.000Z</time>
      </trkpt>
      <trkpt lat="43.59194" lon="5.51283">
        <ele>320.20001220703</ele>
        <time>2012-12-22T11:16:28.000Z</time>
      </trkpt>
      <trkpt lat="43.59156" lon="5.5124">
        <ele>320.60000610352</ele>
        <time>2012-12-22T11:16:42.000Z</time>
      </trkpt>
      <trkpt lat="43.59121" lon="5.51195">
        <ele>324.20001220703</ele>
        <time>2012-12-22T11:16:57.000Z</time>
      </trkpt>
      <trkpt lat="43.59086" lon="5.51154">
        <ele>324.79998779297</ele>
        <time>2012-12-22T11:17:12.000Z</time>
      </trkpt>
      <trkpt lat="43.5905" lon="5.51108">
        <ele>325.79998779297</ele>
        <time>2012-12-22T11:17:26.000Z</time>
      </trkpt>
      <trkpt lat="43.59016" lon="5.51063">
        <ele>325.39999389648</ele>
        <time>2012-12-22T11:17:39.000Z</time>
      </trkpt>
      <trkpt lat="43.58979" lon="5.5102">
        <ele>325.20001220703</ele>
        <time>2012-12-22T11:17:51.000Z</time>
      </trkpt>
      <trkpt lat="43.58943" lon="5.50983">
        <ele>324.60000610352</ele>
        <time>2012-12-22T11:18:01.000Z</time>
      </trkpt>
      <trkpt lat="43.58915" lon="5.5093">
        <ele>321.39999389648</ele>
        <time>2012-12-22T11:18:12.000Z</time>
      </trkpt>
      <trkpt lat="43.58887" lon="5.50881">
        <ele>326.60000610352</ele>
        <time>2012-12-22T11:18:26.000Z</time>
      </trkpt>
      <trkpt lat="43.58848" lon="5.50842">
        <ele>331</ele>
        <time>2012-12-22T11:18:42.000Z</time>
      </trkpt>
      <trkpt lat="43.5881" lon="5.50807">
        <ele>332.79998779297</ele>
        <time>2012-12-22T11:18:57.000Z</time>
      </trkpt>
      <trkpt lat="43.5877" lon="5.50769">
        <ele>332</ele>
        <time>2012-12-22T11:19:10.000Z</time>
      </trkpt>
      <trkpt lat="43.58731" lon="5.50738">
        <ele>330.39999389648</ele>
        <time>2012-12-22T11:19:21.000Z</time>
      </trkpt>
      <trkpt lat="43.58686" lon="5.50714">
        <ele>330.20001220703</ele>
        <time>2012-12-22T11:19:32.000Z</time>
      </trkpt>
      <trkpt lat="43.5864" lon="5.50716">
        <ele>330.39999389648</ele>
        <time>2012-12-22T11:19:43.000Z</time>
      </trkpt>
      <trkpt lat="43.58593" lon="5.50715">
        <ele>330.79998779297</ele>
        <time>2012-12-22T11:19:55.000Z</time>
      </trkpt>
      <trkpt lat="43.58564" lon="5.50663">
        <ele>330.39999389648</ele>
        <time>2012-12-22T11:20:07.000Z</time>
      </trkpt>
      <trkpt lat="43.5855" lon="5.50603">
        <ele>332.20001220703</ele>
        <time>2012-12-22T11:20:19.000Z</time>
      </trkpt>
      <trkpt lat="43.58533" lon="5.50543">
        <ele>334.60000610352</ele>
        <time>2012-12-22T11:20:32.000Z</time>
      </trkpt>
      <trkpt lat="43.58501" lon="5.50491">
        <ele>339</ele>
        <time>2012-12-22T11:20:41.000Z</time>
      </trkpt>
      <trkpt lat="43.58479" lon="5.5044">
        <ele>342</ele>
        <time>2012-12-22T11:20:52.000Z</time>
      </trkpt>
      <trkpt lat="43.58479" lon="5.50375">
        <ele>341.60000610352</ele>
        <time>2012-12-22T11:21:06.000Z</time>
      </trkpt>
      <trkpt lat="43.58453" lon="5.50333">
        <ele>341.60000610352</ele>
        <time>2012-12-22T11:21:23.000Z</time>
      </trkpt>
      <trkpt lat="43.58408" lon="5.5031">
        <ele>342.79998779297</ele>
        <time>2012-12-22T11:21:37.000Z</time>
      </trkpt>
      <trkpt lat="43.58367" lon="5.5028">
        <ele>342.60000610352</ele>
        <time>2012-12-22T11:21:50.000Z</time>
      </trkpt>
      <trkpt lat="43.58332" lon="5.50234">
        <ele>343.20001220703</ele>
        <time>2012-12-22T11:22:04.000Z</time>
      </trkpt>
      <trkpt lat="43.58311" lon="5.50174">
        <ele>345.20001220703</ele>
        <time>2012-12-22T11:22:19.000Z</time>
      </trkpt>
      <trkpt lat="43.58291" lon="5.50115">
        <ele>344.79998779297</ele>
        <time>2012-12-22T11:22:33.000Z</time>
      </trkpt>
      <trkpt lat="43.58261" lon="5.50065">
        <ele>344.79998779297</ele>
        <time>2012-12-22T11:22:45.000Z</time>
      </trkpt>
      <trkpt lat="43.58228" lon="5.50022">
        <ele>342.60000610352</ele>
        <time>2012-12-22T11:22:57.000Z</time>
      </trkpt>
      <trkpt lat="43.58204" lon="5.49968">
        <ele>341.79998779297</ele>
        <time>2012-12-22T11:23:09.000Z</time>
      </trkpt>
      <trkpt lat="43.58208" lon="5.49903">
        <ele>342.60000610352</ele>
        <time>2012-12-22T11:23:20.000Z</time>
      </trkpt>
      <trkpt lat="43.58226" lon="5.49841">
        <ele>342.60000610352</ele>
        <time>2012-12-22T11:23:32.000Z</time>
      </trkpt>
      <trkpt lat="43.58249" lon="5.49785">
        <ele>341.39999389648</ele>
        <time>2012-12-22T11:23:42.000Z</time>
      </trkpt>
      <trkpt lat="43.58261" lon="5.49721">
        <ele>340.20001220703</ele>
        <time>2012-12-22T11:23:51.000Z</time>
      </trkpt>
      <trkpt lat="43.58268" lon="5.49652">
        <ele>339.39999389648</ele>
        <time>2012-12-22T11:24:00.000Z</time>
      </trkpt>
      <trkpt lat="43.58276" lon="5.4959">
        <ele>338.60000610352</ele>
        <time>2012-12-22T11:24:08.000Z</time>
      </trkpt>
      <trkpt lat="43.58284" lon="5.49525">
        <ele>339.20001220703</ele>
        <time>2012-12-22T11:24:16.000Z</time>
      </trkpt>
      <trkpt lat="43.58291" lon="5.49457">
        <ele>340.39999389648</ele>
        <time>2012-12-22T11:24:24.000Z</time>
      </trkpt>
      <trkpt lat="43.58295" lon="5.49389">
        <ele>342</ele>
        <time>2012-12-22T11:24:32.000Z</time>
      </trkpt>
      <trkpt lat="43.58304" lon="5.4933">
        <ele>343.20001220703</ele>
        <time>2012-12-22T11:24:44.000Z</time>
      </trkpt>
      <trkpt lat="43.58342" lon="5.49296">
        <ele>341.60000610352</ele>
        <time>2012-12-22T11:24:59.000Z</time>
      </trkpt>
      <trkpt lat="43.5838" lon="5.49258">
        <ele>341.20001220703</ele>
        <time>2012-12-22T11:25:12.000Z</time>
      </trkpt>
      <trkpt lat="43.58418" lon="5.49217">
        <ele>341.79998779297</ele>
        <time>2012-12-22T11:25:26.000Z</time>
      </trkpt>
      <trkpt lat="43.58454" lon="5.49176">
        <ele>342.20001220703</ele>
        <time>2012-12-22T11:25:37.000Z</time>
      </trkpt>
      <trkpt lat="43.5849" lon="5.49131">
        <ele>342.20001220703</ele>
        <time>2012-12-22T11:25:48.000Z</time>
      </trkpt>
      <trkpt lat="43.58523" lon="5.49085">
        <ele>341.60000610352</ele>
        <time>2012-12-22T11:25:58.000Z</time>
      </trkpt>
      <trkpt lat="43.58554" lon="5.49039">
        <ele>340.60000610352</ele>
        <time>2012-12-22T11:26:07.000Z</time>
      </trkpt>
      <trkpt lat="43.58585" lon="5.48993">
        <ele>339.79998779297</ele>
        <time>2012-12-22T11:26:15.000Z</time>
      </trkpt>
      <trkpt lat="43.58615" lon="5.48946">
        <ele>338.79998779297</ele>
        <time>2012-12-22T11:26:23.000Z</time>
      </trkpt>
      <trkpt lat="43.58641" lon="5.4889">
        <ele>338.60000610352</ele>
        <time>2012-12-22T11:26:32.000Z</time>
      </trkpt>
      <trkpt lat="43.58645" lon="5.48822">
        <ele>338.60000610352</ele>
        <time>2012-12-22T11:26:40.000Z</time>
      </trkpt>
      <trkpt lat="43.58649" lon="5.48752">
        <ele>338.60000610352</ele>
        <time>2012-12-22T11:26:48.000Z</time>
      </trkpt>
      <trkpt lat="43.58654" lon="5.48681">
        <ele>338.20001220703</ele>
        <time>2012-12-22T11:26:56.000Z</time>
      </trkpt>
      <trkpt lat="43.58658" lon="5.48617">
        <ele>337.39999389648</ele>
        <time>2012-12-22T11:27:03.000Z</time>
      </trkpt>
      <trkpt lat="43.58662" lon="5.4855">
        <ele>336.60000610352</ele>
        <time>2012-12-22T11:27:10.000Z</time>
      </trkpt>
      <trkpt lat="43.58666" lon="5.48482">
        <ele>335.60000610352</ele>
        <time>2012-12-22T11:27:17.000Z</time>
      </trkpt>
      <trkpt lat="43.5867" lon="5.48411">
        <ele>334.79998779297</ele>
        <time>2012-12-22T11:27:24.000Z</time>
      </trkpt>
      <trkpt lat="43.58674" lon="5.48349">
        <ele>333.39999389648</ele>
        <time>2012-12-22T11:27:30.000Z</time>
      </trkpt>
      <trkpt lat="43.58679" lon="5.48285">
        <ele>331</ele>
        <time>2012-12-22T11:27:36.000Z</time>
      </trkpt>
      <trkpt lat="43.58683" lon="5.48223">
        <ele>329.39999389648</ele>
        <time>2012-12-22T11:27:42.000Z</time>
      </trkpt>
      <trkpt lat="43.58687" lon="5.48161">
        <ele>329.39999389648</ele>
        <time>2012-12-22T11:27:48.000Z</time>
      </trkpt>
      <trkpt lat="43.58689" lon="5.48098">
        <ele>329.60000610352</ele>
        <time>2012-12-22T11:27:54.000Z</time>
      </trkpt>
      <trkpt lat="43.58689" lon="5.48035">
        <ele>328.60000610352</ele>
        <time>2012-12-22T11:28:00.000Z</time>
      </trkpt>
      <trkpt lat="43.58687" lon="5.47973">
        <ele>328</ele>
        <time>2012-12-22T11:28:06.000Z</time>
      </trkpt>
      <trkpt lat="43.58683" lon="5.4791">
        <ele>328.20001220703</ele>
        <time>2012-12-22T11:28:12.000Z</time>
      </trkpt>
      <trkpt lat="43.58679" lon="5.4784">
        <ele>329</ele>
        <time>2012-12-22T11:28:19.000Z</time>
      </trkpt>
      <trkpt lat="43.58671" lon="5.47772">
        <ele>329.60000610352</ele>
        <time>2012-12-22T11:28:26.000Z</time>
      </trkpt>
      <trkpt lat="43.58656" lon="5.47703">
        <ele>327.60000610352</ele>
        <time>2012-12-22T11:28:33.000Z</time>
      </trkpt>
      <trkpt lat="43.5864" lon="5.47639">
        <ele>326.39999389648</ele>
        <time>2012-12-22T11:28:40.000Z</time>
      </trkpt>
      <trkpt lat="43.58622" lon="5.47577">
        <ele>326</ele>
        <time>2012-12-22T11:28:47.000Z</time>
      </trkpt>
      <trkpt lat="43.58604" lon="5.47519">
        <ele>326.79998779297</ele>
        <time>2012-12-22T11:28:58.000Z</time>
      </trkpt>
      <trkpt lat="43.58645" lon="5.47531">
        <ele>327</ele>
        <time>2012-12-22T11:29:24.000Z</time>
      </trkpt>
      <trkpt lat="43.58643" lon="5.47519">
        <ele>327.20001220703</ele>
        <time>2012-12-22T11:31:41.000Z</time>
      </trkpt>
    </trkseg>
  </trk>
</gpx>